SAS915 EKCH-KJFK
Flight info
| Callsign | SAS915 |
|---|---|
| Flight time | 8h 7m |
| Altitude | 38000 |
| Route | ODDON P60 NUGLO DCT GOLUM DCT GIVEM DCT TRN DCT LUTOV DCT RESNO/M081F390 NATA JANJO/N0451F400 N716B KJOHN DCT PONCT PUCKY1 |
| Aircraft | A333/H-SDE3GHIJ2J3J5M1RVWXY/LB2D1 |
Departure
| Time | 2026-04-26 12:27 |
|---|---|
| Airport | Copenhagen Kastrup Airport (EKCH) |
Arrival
| Time | 2026-04-26 20:35 |
|---|---|
| Airport | John F. Kennedy International Airport (KJFK) |
| Time | Latitude | Longitude | Altitude | Speed | Heading |
|---|---|---|---|---|---|
| 2026-04-26 11:44 | 55.62504 | 12.65041 | 21 ft | 0 kts | 268° |
| 2026-04-26 12:13 | 55.62505 | 12.65059 | 21 ft | 4 kts | 268° |
| 2026-04-26 12:13 | 55.62505 | 12.65106 | 23 ft | 4 kts | 268° |
| 2026-04-26 12:14 | 55.62506 | 12.65146 | 24 ft | 4 kts | 266° |
| 2026-04-26 12:14 | 55.62513 | 12.65184 | 25 ft | 4 kts | 213° |
| 2026-04-26 12:14 | 55.62537 | 12.65197 | 24 ft | 3 kts | 178° |
| 2026-04-26 12:14 | 55.62525 | 12.65198 | 26 ft | 4 kts | 179° |
| 2026-04-26 12:15 | 55.62518 | 12.65198 | 26 ft | 1 kts | 179° |
| 2026-04-26 12:19 | 55.62509 | 12.65198 | 23 ft | 2 kts | 179° |
| 2026-04-26 12:19 | 55.62493 | 12.65199 | 23 ft | 5 kts | 179° |
| 2026-04-26 12:20 | 55.62434 | 12.65201 | 22 ft | 10 kts | 179° |
| 2026-04-26 12:20 | 55.62361 | 12.65204 | 24 ft | 11 kts | 179° |
| 2026-04-26 12:20 | 55.62282 | 12.65199 | 24 ft | 12 kts | 180° |
| 2026-04-26 12:20 | 55.62203 | 12.65172 | 23 ft | 12 kts | 207° |
| 2026-04-26 12:21 | 55.62131 | 12.65092 | 25 ft | 13 kts | 213° |
| 2026-04-26 12:21 | 55.62056 | 12.65007 | 24 ft | 13 kts | 213° |
| 2026-04-26 12:21 | 55.61978 | 12.64915 | 23 ft | 14 kts | 213° |
| 2026-04-26 12:21 | 55.61922 | 12.64851 | 23 ft | 15 kts | 213° |
| 2026-04-26 12:22 | 55.61834 | 12.64750 | 25 ft | 15 kts | 213° |
| 2026-04-26 12:22 | 55.61743 | 12.64645 | 21 ft | 16 kts | 213° |
| 2026-04-26 12:22 | 55.61649 | 12.64536 | 21 ft | 16 kts | 213° |
| 2026-04-26 12:22 | 55.61546 | 12.64418 | 24 ft | 19 kts | 213° |
| 2026-04-26 12:23 | 55.61425 | 12.64279 | 24 ft | 21 kts | 213° |
| 2026-04-26 12:23 | 55.61299 | 12.64135 | 24 ft | 22 kts | 213° |
| 2026-04-26 12:23 | 55.61172 | 12.63988 | 22 ft | 22 kts | 213° |
| 2026-04-26 12:23 | 55.61042 | 12.63840 | 23 ft | 22 kts | 213° |
| 2026-04-26 12:24 | 55.60921 | 12.63700 | 23 ft | 20 kts | 213° |
| 2026-04-26 12:24 | 55.60801 | 12.63562 | 25 ft | 21 kts | 213° |
| 2026-04-26 12:24 | 55.60682 | 12.63424 | 22 ft | 16 kts | 214° |
| 2026-04-26 12:25 | 55.60505 | 12.63163 | 24 ft | 15 kts | 221° |
| 2026-04-26 12:25 | 55.60453 | 12.63110 | 24 ft | 10 kts | 192° |
| 2026-04-26 12:25 | 55.60396 | 12.63156 | 22 ft | 9 kts | 130° |
| 2026-04-26 12:25 | 55.60354 | 12.63244 | 25 ft | 9 kts | 130° |
| 2026-04-26 12:26 | 55.60337 | 12.63326 | 25 ft | 6 kts | 85° |
| 2026-04-26 12:26 | 55.60360 | 12.63387 | 25 ft | 6 kts | 40° |
| 2026-04-26 12:26 | 55.60423 | 12.63481 | 24 ft | 25 kts | 40° |
| 2026-04-26 12:26 | 55.60703 | 12.63915 | 23 ft | 82 kts | 40° |
| 2026-04-26 12:27 | 55.61270 | 12.64789 | 27 ft | 134 kts | 40° |
| 2026-04-26 12:27 | 55.62075 | 12.66051 | 172 ft | 168 kts | 38° |
| 2026-04-26 12:27 | 55.62965 | 12.67451 | 918 ft | 172 kts | 38° |
| 2026-04-26 12:27 | 55.63870 | 12.68827 | 1750 ft | 174 kts | 36° |
| 2026-04-26 12:28 | 55.64812 | 12.70206 | 2304 ft | 179 kts | 34° |
| 2026-04-26 12:28 | 55.65822 | 12.71592 | 2760 ft | 189 kts | 26° |
| 2026-04-26 12:28 | 55.67132 | 12.72152 | 3058 ft | 204 kts | 1° |
| 2026-04-26 12:28 | 55.68605 | 12.72027 | 3302 ft | 222 kts | 340° |
| 2026-04-26 12:29 | 55.69849 | 12.70400 | 3594 ft | 238 kts | 302° |
| 2026-04-26 12:29 | 55.70262 | 12.67552 | 4178 ft | 246 kts | 270° |
| 2026-04-26 12:29 | 55.69820 | 12.61483 | 5682 ft | 252 kts | 264° |
| 2026-04-26 12:30 | 55.69591 | 12.58383 | 6438 ft | 255 kts | 266° |
| 2026-04-26 12:30 | 55.69387 | 12.55236 | 7169 ft | 258 kts | 267° |
| 2026-04-26 12:30 | 55.69199 | 12.52058 | 7919 ft | 261 kts | 268° |
| 2026-04-26 12:31 | 55.68848 | 12.45614 | 9482 ft | 264 kts | 269° |
| 2026-04-26 12:31 | 55.68675 | 12.42364 | 10246 ft | 266 kts | 270° |
| 2026-04-26 12:31 | 55.68501 | 12.39039 | 10680 ft | 278 kts | 270° |
| 2026-04-26 12:31 | 55.68320 | 12.35516 | 10953 ft | 296 kts | 270° |
| 2026-04-26 12:32 | 55.68125 | 12.31779 | 11199 ft | 314 kts | 269° |
| 2026-04-26 12:32 | 55.67916 | 12.27846 | 11577 ft | 326 kts | 269° |
| 2026-04-26 12:32 | 55.67473 | 12.19724 | 12822 ft | 335 kts | 269° |
| 2026-04-26 12:33 | 55.67246 | 12.15592 | 13484 ft | 338 kts | 269° |
| 2026-04-26 12:33 | 55.67017 | 12.11426 | 14147 ft | 342 kts | 269° |
| 2026-04-26 12:33 | 55.66784 | 12.07218 | 14748 ft | 344 kts | 269° |
| 2026-04-26 12:33 | 55.66549 | 12.02991 | 15376 ft | 346 kts | 269° |
| 2026-04-26 12:34 | 55.66312 | 11.98736 | 16000 ft | 348 kts | 269° |
| 2026-04-26 12:34 | 55.66071 | 11.94463 | 16619 ft | 350 kts | 269° |
| 2026-04-26 12:34 | 55.65828 | 11.90168 | 17244 ft | 352 kts | 269° |
| 2026-04-26 12:34 | 55.65583 | 11.85849 | 17846 ft | 354 kts | 269° |
| 2026-04-26 12:35 | 55.65334 | 11.81501 | 18421 ft | 356 kts | 269° |
| 2026-04-26 12:35 | 55.65082 | 11.77134 | 18962 ft | 358 kts | 268° |
| 2026-04-26 12:35 | 55.64827 | 11.72733 | 19435 ft | 361 kts | 268° |
| 2026-04-26 12:35 | 55.64570 | 11.68306 | 19913 ft | 363 kts | 268° |
| 2026-04-26 12:36 | 55.64308 | 11.63838 | 20402 ft | 366 kts | 268° |
| 2026-04-26 12:36 | 55.64043 | 11.59345 | 20860 ft | 368 kts | 268° |
| 2026-04-26 12:36 | 55.63774 | 11.54822 | 21334 ft | 371 kts | 268° |
| 2026-04-26 12:36 | 55.63502 | 11.50271 | 21798 ft | 373 kts | 268° |
| 2026-04-26 12:37 | 55.63226 | 11.45681 | 22261 ft | 376 kts | 268° |
| 2026-04-26 12:37 | 55.62947 | 11.41072 | 22706 ft | 378 kts | 268° |
| 2026-04-26 12:37 | 55.62667 | 11.36492 | 23131 ft | 381 kts | 268° |
| 2026-04-26 12:37 | 55.62377 | 11.31757 | 23579 ft | 383 kts | 268° |
| 2026-04-26 12:38 | 55.62091 | 11.27120 | 23981 ft | 386 kts | 267° |
| 2026-04-26 12:38 | 55.61798 | 11.22395 | 24334 ft | 388 kts | 267° |
| 2026-04-26 12:38 | 55.61501 | 11.17641 | 24684 ft | 390 kts | 266° |
| 2026-04-26 12:38 | 55.61201 | 11.12876 | 25052 ft | 391 kts | 266° |
| 2026-04-26 12:39 | 55.60897 | 11.08086 | 25413 ft | 393 kts | 266° |
| 2026-04-26 12:39 | 55.60591 | 11.03276 | 25775 ft | 394 kts | 266° |
| 2026-04-26 12:39 | 55.60281 | 10.98446 | 26139 ft | 396 kts | 266° |
| 2026-04-26 12:39 | 55.59969 | 10.93603 | 26490 ft | 398 kts | 266° |
| 2026-04-26 12:40 | 55.59653 | 10.88735 | 26833 ft | 399 kts | 266° |
| 2026-04-26 12:40 | 55.59334 | 10.83849 | 27189 ft | 401 kts | 266° |
| 2026-04-26 12:40 | 55.59012 | 10.78947 | 27521 ft | 403 kts | 266° |
| 2026-04-26 12:40 | 55.58686 | 10.74017 | 27863 ft | 404 kts | 266° |
| 2026-04-26 12:41 | 55.58388 | 10.69071 | 28190 ft | 405 kts | 269° |
| 2026-04-26 12:41 | 55.58376 | 10.64101 | 28516 ft | 404 kts | 276° |
| 2026-04-26 12:41 | 55.58722 | 10.59167 | 28837 ft | 405 kts | 280° |
| 2026-04-26 12:41 | 55.59192 | 10.54251 | 29173 ft | 407 kts | 282° |
| 2026-04-26 12:42 | 55.59721 | 10.49325 | 29490 ft | 408 kts | 282° |
| 2026-04-26 12:42 | 55.60271 | 10.44394 | 29805 ft | 410 kts | 282° |
| 2026-04-26 12:42 | 55.60825 | 10.39433 | 30116 ft | 412 kts | 282° |
| 2026-04-26 12:42 | 55.61372 | 10.34452 | 30410 ft | 414 kts | 282° |
| 2026-04-26 12:43 | 55.61911 | 10.29440 | 30661 ft | 415 kts | 282° |
| 2026-04-26 12:43 | 55.62443 | 10.24404 | 30920 ft | 417 kts | 282° |
| 2026-04-26 12:43 | 55.62971 | 10.19349 | 31172 ft | 419 kts | 281° |
| 2026-04-26 12:43 | 55.63496 | 10.14271 | 31416 ft | 421 kts | 281° |
| 2026-04-26 12:44 | 55.64021 | 10.09165 | 31655 ft | 423 kts | 281° |
| 2026-04-26 12:44 | 55.64548 | 10.04021 | 31811 ft | 426 kts | 281° |
| 2026-04-26 12:44 | 55.65075 | 9.98849 | 32097 ft | 426 kts | 281° |
| 2026-04-26 12:44 | 55.65599 | 9.93694 | 32473 ft | 425 kts | 281° |
| 2026-04-26 12:45 | 55.66148 | 9.88569 | 32837 ft | 423 kts | 282° |
| 2026-04-26 12:45 | 55.66735 | 9.83468 | 33172 ft | 422 kts | 282° |
| 2026-04-26 12:45 | 55.67341 | 9.78386 | 33501 ft | 421 kts | 282° |
| 2026-04-26 12:45 | 55.67951 | 9.73316 | 33813 ft | 421 kts | 282° |
| 2026-04-26 12:46 | 55.68559 | 9.68249 | 34149 ft | 420 kts | 282° |
| 2026-04-26 12:46 | 55.69161 | 9.63195 | 34419 ft | 419 kts | 282° |
| 2026-04-26 12:46 | 55.69756 | 9.58145 | 34666 ft | 419 kts | 282° |
| 2026-04-26 12:46 | 55.70348 | 9.53084 | 34821 ft | 420 kts | 282° |
| 2026-04-26 12:47 | 55.70938 | 9.47997 | 34956 ft | 422 kts | 282° |
| 2026-04-26 12:47 | 55.71527 | 9.42895 | 35184 ft | 422 kts | 282° |
| 2026-04-26 12:47 | 55.72112 | 9.37806 | 35420 ft | 421 kts | 282° |
| 2026-04-26 12:47 | 55.72694 | 9.32716 | 35652 ft | 421 kts | 282° |
| 2026-04-26 12:48 | 55.73275 | 9.27622 | 35866 ft | 421 kts | 282° |
| 2026-04-26 12:48 | 55.73845 | 9.22606 | 36068 ft | 421 kts | 282° |
| 2026-04-26 12:48 | 55.74421 | 9.17514 | 36259 ft | 421 kts | 282° |
| 2026-04-26 12:49 | 55.75572 | 9.07289 | 36325 ft | 422 kts | 282° |
| 2026-04-26 12:49 | 55.76713 | 8.97072 | 36320 ft | 422 kts | 281° |
| 2026-04-26 12:50 | 55.77848 | 8.86822 | 36322 ft | 423 kts | 281° |
| 2026-04-26 12:50 | 55.78975 | 8.76558 | 36322 ft | 423 kts | 281° |
| 2026-04-26 12:51 | 55.80094 | 8.66288 | 36321 ft | 423 kts | 281° |
| 2026-04-26 12:51 | 55.81204 | 8.56017 | 36331 ft | 423 kts | 281° |
| 2026-04-26 12:52 | 55.82307 | 8.45729 | 36323 ft | 423 kts | 281° |
| 2026-04-26 12:52 | 55.83397 | 8.35452 | 36339 ft | 424 kts | 281° |
| 2026-04-26 12:53 | 55.84445 | 8.25089 | 36338 ft | 425 kts | 279° |
| 2026-04-26 12:53 | 55.85204 | 8.14662 | 36335 ft | 425 kts | 277° |
| 2026-04-26 12:54 | 55.85862 | 8.04208 | 36341 ft | 425 kts | 277° |
| 2026-04-26 12:54 | 55.86529 | 7.93760 | 36345 ft | 425 kts | 277° |
| 2026-04-26 12:55 | 55.87139 | 7.83284 | 36342 ft | 426 kts | 273° |
| 2026-04-26 12:55 | 55.86609 | 7.72782 | 36345 ft | 429 kts | 259° |
| 2026-04-26 12:56 | 55.85127 | 7.62472 | 36348 ft | 430 kts | 256° |
| 2026-04-26 12:56 | 55.83468 | 7.52307 | 36346 ft | 431 kts | 256° |
| 2026-04-26 12:57 | 55.81779 | 7.42087 | 36353 ft | 431 kts | 256° |
| 2026-04-26 12:57 | 55.80104 | 7.31858 | 36343 ft | 431 kts | 256° |
| 2026-04-26 12:58 | 55.77597 | 7.16517 | 36358 ft | 431 kts | 256° |
| 2026-04-26 12:58 | 55.75915 | 7.06293 | 36357 ft | 431 kts | 256° |
| 2026-04-26 12:59 | 55.74223 | 6.96078 | 36357 ft | 431 kts | 256° |
| 2026-04-26 12:59 | 55.72524 | 6.85874 | 36357 ft | 431 kts | 256° |
| 2026-04-26 13:00 | 55.70814 | 6.75672 | 36361 ft | 431 kts | 256° |
| 2026-04-26 13:00 | 55.69097 | 6.65485 | 36366 ft | 432 kts | 256° |
| 2026-04-26 13:01 | 55.67943 | 6.58670 | 36363 ft | 432 kts | 256° |
| 2026-04-26 13:01 | 55.65632 | 6.45107 | 36368 ft | 432 kts | 255° |
| 2026-04-26 13:02 | 55.63887 | 6.34929 | 36368 ft | 432 kts | 255° |
| 2026-04-26 13:02 | 55.62430 | 6.26479 | 36352 ft | 432 kts | 255° |
| 2026-04-26 13:03 | 55.60370 | 6.14599 | 36355 ft | 432 kts | 255° |
| 2026-04-26 13:03 | 55.58595 | 6.04422 | 36371 ft | 434 kts | 255° |
| 2026-04-26 13:04 | 55.56808 | 5.94235 | 36373 ft | 434 kts | 255° |
| 2026-04-26 13:04 | 55.55025 | 5.84129 | 36373 ft | 434 kts | 255° |
| 2026-04-26 13:05 | 55.53222 | 5.73966 | 36374 ft | 434 kts | 255° |
| 2026-04-26 13:05 | 55.51410 | 5.63805 | 36374 ft | 434 kts | 255° |
| 2026-04-26 13:06 | 55.49588 | 5.53650 | 36366 ft | 434 kts | 255° |
| 2026-04-26 13:06 | 55.47759 | 5.43507 | 36374 ft | 434 kts | 255° |
| 2026-04-26 13:07 | 55.45951 | 5.33355 | 36373 ft | 433 kts | 258° |
| 2026-04-26 13:07 | 55.45212 | 5.24624 | 36374 ft | 429 kts | 270° |
| 2026-04-26 13:08 | 55.45295 | 5.12417 | 36374 ft | 429 kts | 273° |
| 2026-04-26 13:08 | 55.45552 | 5.01910 | 36376 ft | 429 kts | 274° |
| 2026-04-26 13:09 | 55.45808 | 4.91400 | 36376 ft | 429 kts | 274° |
| 2026-04-26 13:09 | 55.46032 | 4.80891 | 36381 ft | 429 kts | 273° |
| 2026-04-26 13:10 | 55.46201 | 4.72153 | 36382 ft | 429 kts | 273° |
| 2026-04-26 13:10 | 55.46393 | 4.61648 | 36384 ft | 429 kts | 273° |
| 2026-04-26 13:11 | 55.46577 | 4.51134 | 36384 ft | 429 kts | 273° |
| 2026-04-26 13:11 | 55.46753 | 4.40621 | 36384 ft | 429 kts | 273° |
| 2026-04-26 13:12 | 55.46920 | 4.30121 | 36384 ft | 428 kts | 273° |
| 2026-04-26 13:12 | 55.47077 | 4.19659 | 36383 ft | 425 kts | 273° |
| 2026-04-26 13:13 | 55.47225 | 4.09251 | 36384 ft | 424 kts | 272° |
| 2026-04-26 13:13 | 55.47364 | 3.98852 | 36390 ft | 425 kts | 272° |
| 2026-04-26 13:14 | 55.47430 | 3.93642 | 36389 ft | 425 kts | 272° |
| 2026-04-26 13:15 | 55.47742 | 3.66240 | 36390 ft | 424 kts | 272° |
| 2026-04-26 13:15 | 55.47827 | 3.57599 | 36390 ft | 424 kts | 272° |
| 2026-04-26 13:16 | 55.47938 | 3.45445 | 36387 ft | 424 kts | 272° |
| 2026-04-26 13:16 | 55.48009 | 3.36801 | 36387 ft | 424 kts | 272° |
| 2026-04-26 13:17 | 55.48133 | 3.19435 | 36380 ft | 425 kts | 272° |
| 2026-04-26 13:18 | 55.48223 | 3.03814 | 36375 ft | 425 kts | 272° |
| 2026-04-26 13:19 | 55.48287 | 2.89952 | 36380 ft | 425 kts | 271° |
| 2026-04-26 13:19 | 55.48325 | 2.79541 | 36378 ft | 425 kts | 271° |
| 2026-04-26 13:20 | 55.48354 | 2.69131 | 36378 ft | 424 kts | 271° |
| 2026-04-26 13:20 | 55.48374 | 2.58722 | 36371 ft | 424 kts | 271° |
| 2026-04-26 13:21 | 55.48385 | 2.48325 | 36376 ft | 424 kts | 271° |
| 2026-04-26 13:21 | 55.48387 | 2.37930 | 36368 ft | 424 kts | 271° |
| 2026-04-26 13:22 | 55.48380 | 2.27534 | 36362 ft | 424 kts | 271° |
| 2026-04-26 13:22 | 55.48365 | 2.17135 | 36363 ft | 424 kts | 270° |
| 2026-04-26 13:23 | 55.48341 | 2.06745 | 36372 ft | 424 kts | 270° |
| 2026-04-26 13:23 | 55.48308 | 1.96352 | 36363 ft | 424 kts | 270° |
| 2026-04-26 13:24 | 55.48266 | 1.85963 | 36360 ft | 424 kts | 270° |
| 2026-04-26 13:24 | 55.48216 | 1.75571 | 36364 ft | 424 kts | 270° |
| 2026-04-26 13:25 | 55.48157 | 1.65187 | 36359 ft | 424 kts | 270° |
| 2026-04-26 13:25 | 55.48089 | 1.54816 | 36357 ft | 422 kts | 270° |
| 2026-04-26 13:26 | 55.48012 | 1.44462 | 36363 ft | 422 kts | 270° |
| 2026-04-26 13:26 | 55.47927 | 1.34115 | 36367 ft | 422 kts | 270° |
| 2026-04-26 13:27 | 55.47833 | 1.23767 | 36354 ft | 422 kts | 269° |
| 2026-04-26 13:27 | 55.47730 | 1.13427 | 36354 ft | 422 kts | 269° |
| 2026-04-26 13:28 | 55.47619 | 1.03089 | 36353 ft | 421 kts | 269° |
| 2026-04-26 13:28 | 55.47500 | 0.92864 | 36347 ft | 420 kts | 269° |
| 2026-04-26 13:29 | 55.47372 | 0.82571 | 36349 ft | 420 kts | 269° |
| 2026-04-26 13:29 | 55.47235 | 0.72278 | 36349 ft | 420 kts | 269° |
| 2026-04-26 13:30 | 55.47090 | 0.61990 | 36343 ft | 420 kts | 269° |
| 2026-04-26 13:30 | 55.46936 | 0.51704 | 36341 ft | 420 kts | 268° |
| 2026-04-26 13:31 | 55.46774 | 0.41423 | 36344 ft | 419 kts | 268° |
| 2026-04-26 13:31 | 55.46603 | 0.31152 | 36334 ft | 419 kts | 268° |
| 2026-04-26 13:32 | 55.46442 | 0.20881 | 36342 ft | 419 kts | 269° |
| 2026-04-26 13:32 | 55.46333 | 0.10603 | 36333 ft | 419 kts | 269° |
| 2026-04-26 13:33 | 55.46230 | 0.00334 | 36336 ft | 419 kts | 269° |
| 2026-04-26 13:33 | 55.46113 | -0.09939 | 36336 ft | 419 kts | 268° |
| 2026-04-26 13:34 | 55.45983 | -0.20201 | 36337 ft | 419 kts | 268° |
| 2026-04-26 13:34 | 55.45843 | -0.30454 | 36327 ft | 419 kts | 268° |
| 2026-04-26 13:35 | 55.45695 | -0.40714 | 36338 ft | 419 kts | 268° |
| 2026-04-26 13:35 | 55.45539 | -0.50897 | 36320 ft | 419 kts | 268° |
| 2026-04-26 13:36 | 55.45373 | -0.61224 | 36325 ft | 419 kts | 268° |
| 2026-04-26 13:36 | 55.45200 | -0.71408 | 36326 ft | 419 kts | 268° |
| 2026-04-26 13:37 | 55.45018 | -0.81659 | 36324 ft | 419 kts | 268° |
| 2026-04-26 13:37 | 55.44828 | -0.91905 | 36319 ft | 419 kts | 268° |
| 2026-04-26 13:38 | 55.44628 | -1.02158 | 36316 ft | 419 kts | 268° |
| 2026-04-26 13:38 | 55.44420 | -1.12408 | 36305 ft | 419 kts | 267° |
| 2026-04-26 13:39 | 55.44205 | -1.22630 | 36295 ft | 417 kts | 267° |
| 2026-04-26 13:39 | 55.43981 | -1.32821 | 36299 ft | 416 kts | 267° |
| 2026-04-26 13:40 | 55.43749 | -1.43003 | 36292 ft | 416 kts | 267° |
| 2026-04-26 13:40 | 55.43508 | -1.53189 | 36292 ft | 416 kts | 267° |
| 2026-04-26 13:41 | 55.43259 | -1.63371 | 36296 ft | 416 kts | 267° |
| 2026-04-26 13:41 | 55.43002 | -1.73546 | 36299 ft | 415 kts | 266° |
| 2026-04-26 13:42 | 55.42737 | -1.83684 | 36291 ft | 414 kts | 266° |
| 2026-04-26 13:42 | 55.42464 | -1.93801 | 36284 ft | 414 kts | 266° |
| 2026-04-26 13:43 | 55.42183 | -2.03915 | 36281 ft | 414 kts | 266° |
| 2026-04-26 13:43 | 55.41894 | -2.14028 | 36278 ft | 414 kts | 266° |
| 2026-04-26 13:44 | 55.41597 | -2.24143 | 36273 ft | 414 kts | 266° |
| 2026-04-26 13:44 | 55.41291 | -2.34232 | 36275 ft | 412 kts | 266° |
| 2026-04-26 13:45 | 55.40978 | -2.44301 | 36267 ft | 412 kts | 266° |
| 2026-04-26 13:45 | 55.40656 | -2.54361 | 36276 ft | 412 kts | 266° |
| 2026-04-26 13:46 | 55.40326 | -2.64428 | 36271 ft | 412 kts | 265° |
| 2026-04-26 13:46 | 55.39991 | -2.74421 | 36274 ft | 412 kts | 265° |
| 2026-04-26 13:47 | 55.39645 | -2.84474 | 36276 ft | 411 kts | 265° |
| 2026-04-26 13:47 | 55.39292 | -2.94516 | 36269 ft | 411 kts | 265° |
| 2026-04-26 13:48 | 55.38931 | -3.04548 | 36267 ft | 411 kts | 265° |
| 2026-04-26 13:48 | 55.38560 | -3.14577 | 36268 ft | 411 kts | 265° |
| 2026-04-26 13:49 | 55.38183 | -3.24603 | 36263 ft | 411 kts | 265° |
| 2026-04-26 13:49 | 55.37798 | -3.34627 | 36268 ft | 411 kts | 264° |
| 2026-04-26 13:50 | 55.37403 | -3.44663 | 36271 ft | 411 kts | 264° |
| 2026-04-26 13:50 | 55.37000 | -3.54678 | 36273 ft | 411 kts | 264° |
| 2026-04-26 13:51 | 55.36589 | -3.64690 | 36271 ft | 411 kts | 264° |
| 2026-04-26 13:51 | 55.36170 | -3.74699 | 36272 ft | 411 kts | 264° |
| 2026-04-26 13:52 | 55.35738 | -3.84707 | 36276 ft | 410 kts | 264° |
| 2026-04-26 13:52 | 55.35305 | -3.94708 | 36275 ft | 411 kts | 264° |
| 2026-04-26 13:53 | 55.34864 | -4.04727 | 36273 ft | 411 kts | 263° |
| 2026-04-26 13:53 | 55.34413 | -4.14741 | 36270 ft | 411 kts | 263° |
| 2026-04-26 13:54 | 55.33953 | -4.24755 | 36277 ft | 411 kts | 263° |
| 2026-04-26 13:54 | 55.33485 | -4.34762 | 36276 ft | 411 kts | 263° |
| 2026-04-26 13:55 | 55.32848 | -4.48085 | 36271 ft | 412 kts | 263° |
| 2026-04-26 13:56 | 55.32026 | -4.64840 | 36446 ft | 415 kts | 263° |
| 2026-04-26 13:56 | 55.31774 | -4.69891 | 36621 ft | 416 kts | 263° |
| 2026-04-26 13:56 | 55.31520 | -4.74959 | 36780 ft | 417 kts | 263° |
| 2026-04-26 13:56 | 55.31407 | -4.80058 | 36940 ft | 419 kts | 267° |
| 2026-04-26 13:57 | 55.31392 | -4.85180 | 37115 ft | 420 kts | 268° |
| 2026-04-26 13:57 | 55.31405 | -4.90315 | 37290 ft | 421 kts | 268° |
| 2026-04-26 13:57 | 55.31433 | -4.95456 | 37443 ft | 422 kts | 268° |
| 2026-04-26 13:57 | 55.31467 | -5.00609 | 37594 ft | 423 kts | 268° |
| 2026-04-26 13:58 | 55.31500 | -5.05711 | 37733 ft | 424 kts | 268° |
| 2026-04-26 13:58 | 55.31530 | -5.10884 | 37895 ft | 424 kts | 268° |
| 2026-04-26 13:58 | 55.31556 | -5.16135 | 38061 ft | 425 kts | 268° |
| 2026-04-26 13:58 | 55.31578 | -5.21250 | 38209 ft | 425 kts | 268° |
| 2026-04-26 13:59 | 55.31596 | -5.26451 | 38288 ft | 427 kts | 268° |
| 2026-04-26 13:59 | 55.31625 | -5.36854 | 38283 ft | 426 kts | 268° |
| 2026-04-26 14:00 | 55.31656 | -5.57624 | 38280 ft | 425 kts | 268° |
| 2026-04-26 14:01 | 55.31658 | -5.68023 | 38281 ft | 426 kts | 268° |
| 2026-04-26 14:01 | 55.31652 | -5.78433 | 38279 ft | 426 kts | 268° |
| 2026-04-26 14:02 | 55.31636 | -5.88839 | 38281 ft | 426 kts | 268° |
| 2026-04-26 14:02 | 55.31612 | -5.99244 | 38279 ft | 426 kts | 268° |
| 2026-04-26 14:03 | 55.31579 | -6.09655 | 38281 ft | 426 kts | 268° |
| 2026-04-26 14:03 | 55.31537 | -6.20055 | 38280 ft | 426 kts | 268° |
| 2026-04-26 14:04 | 55.31487 | -6.30462 | 38278 ft | 426 kts | 268° |
| 2026-04-26 14:04 | 55.31427 | -6.40869 | 38278 ft | 426 kts | 268° |
| 2026-04-26 14:05 | 55.31371 | -6.49511 | 38275 ft | 426 kts | 267° |
| 2026-04-26 14:05 | 55.31295 | -6.59910 | 38275 ft | 426 kts | 267° |
| 2026-04-26 14:06 | 55.31210 | -6.70313 | 38277 ft | 426 kts | 267° |
| 2026-04-26 14:06 | 55.31117 | -6.80725 | 38275 ft | 427 kts | 267° |
| 2026-04-26 14:07 | 55.31014 | -6.91141 | 38271 ft | 427 kts | 267° |
| 2026-04-26 14:07 | 55.30903 | -7.01557 | 38271 ft | 427 kts | 267° |
| 2026-04-26 14:08 | 55.30783 | -7.11968 | 38271 ft | 427 kts | 267° |
| 2026-04-26 14:08 | 55.30655 | -7.22316 | 38270 ft | 427 kts | 267° |
| 2026-04-26 14:09 | 55.30516 | -7.32722 | 38294 ft | 427 kts | 267° |
| 2026-04-26 14:09 | 55.30370 | -7.43116 | 38269 ft | 425 kts | 267° |
| 2026-04-26 14:10 | 55.30216 | -7.53479 | 38265 ft | 425 kts | 266° |
| 2026-04-26 14:10 | 55.30053 | -7.63839 | 38266 ft | 425 kts | 266° |
| 2026-04-26 14:11 | 55.29791 | -7.79386 | 38265 ft | 425 kts | 266° |
| 2026-04-26 14:11 | 55.29605 | -7.89761 | 38272 ft | 426 kts | 266° |
| 2026-04-26 14:12 | 55.29410 | -8.00145 | 38274 ft | 426 kts | 266° |
| 2026-04-26 14:12 | 55.29207 | -8.10529 | 38277 ft | 426 kts | 266° |
| 2026-04-26 14:13 | 55.28885 | -8.26091 | 38275 ft | 426 kts | 266° |
| 2026-04-26 14:14 | 55.28660 | -8.36473 | 38282 ft | 426 kts | 266° |
| 2026-04-26 14:14 | 55.28425 | -8.46869 | 38270 ft | 427 kts | 266° |
| 2026-04-26 14:15 | 55.28181 | -8.57277 | 38270 ft | 427 kts | 266° |
| 2026-04-26 14:15 | 55.27929 | -8.67683 | 38276 ft | 427 kts | 266° |
| 2026-04-26 14:16 | 55.27667 | -8.78084 | 38279 ft | 427 kts | 266° |
| 2026-04-26 14:16 | 55.27397 | -8.88485 | 38272 ft | 427 kts | 266° |
| 2026-04-26 14:17 | 55.27118 | -8.98876 | 38274 ft | 427 kts | 266° |
| 2026-04-26 14:17 | 55.26830 | -9.09267 | 38269 ft | 427 kts | 266° |
| 2026-04-26 14:18 | 55.26534 | -9.19654 | 38268 ft | 427 kts | 266° |
| 2026-04-26 14:18 | 55.26231 | -9.29971 | 38265 ft | 427 kts | 266° |
| 2026-04-26 14:19 | 55.25917 | -9.40356 | 38264 ft | 427 kts | 266° |
| 2026-04-26 14:19 | 55.25594 | -9.50728 | 38266 ft | 426 kts | 266° |
| 2026-04-26 14:20 | 55.25263 | -9.61091 | 38261 ft | 426 kts | 266° |
| 2026-04-26 14:20 | 55.24923 | -9.71445 | 38262 ft | 426 kts | 266° |
| 2026-04-26 14:21 | 55.24575 | -9.81801 | 38262 ft | 426 kts | 266° |
| 2026-04-26 14:21 | 55.24218 | -9.92152 | 38259 ft | 426 kts | 266° |
| 2026-04-26 14:22 | 55.23863 | -10.02505 | 38262 ft | 426 kts | 266° |
| 2026-04-26 14:22 | 55.23565 | -10.12881 | 38264 ft | 427 kts | 267° |
| 2026-04-26 14:23 | 55.23278 | -10.23265 | 38256 ft | 427 kts | 266° |
| 2026-04-26 14:23 | 55.22978 | -10.33650 | 38260 ft | 427 kts | 266° |
| 2026-04-26 14:24 | 55.22665 | -10.44032 | 38252 ft | 427 kts | 266° |
| 2026-04-26 14:24 | 55.22340 | -10.54405 | 38258 ft | 427 kts | 266° |
| 2026-04-26 14:25 | 55.22006 | -10.64804 | 38256 ft | 428 kts | 266° |
| 2026-04-26 14:25 | 55.21663 | -10.75198 | 38253 ft | 428 kts | 266° |
| 2026-04-26 14:26 | 55.21312 | -10.85598 | 38244 ft | 428 kts | 266° |
| 2026-04-26 14:26 | 55.20951 | -10.95995 | 38244 ft | 428 kts | 266° |
| 2026-04-26 14:27 | 55.20582 | -11.06384 | 38250 ft | 428 kts | 266° |
| 2026-04-26 14:27 | 55.20204 | -11.16773 | 38252 ft | 427 kts | 266° |
| 2026-04-26 14:28 | 55.19818 | -11.27140 | 38252 ft | 427 kts | 266° |
| 2026-04-26 14:28 | 55.19423 | -11.37509 | 38247 ft | 427 kts | 266° |
| 2026-04-26 14:29 | 55.19020 | -11.47876 | 38248 ft | 427 kts | 266° |
| 2026-04-26 14:29 | 55.18610 | -11.58171 | 38247 ft | 427 kts | 266° |
| 2026-04-26 14:30 | 55.18189 | -11.68538 | 38250 ft | 427 kts | 266° |
| 2026-04-26 14:30 | 55.17759 | -11.78891 | 38250 ft | 427 kts | 266° |
| 2026-04-26 14:31 | 55.17320 | -11.89250 | 38248 ft | 427 kts | 266° |
| 2026-04-26 14:31 | 55.16873 | -11.99593 | 38251 ft | 427 kts | 266° |
| 2026-04-26 14:32 | 55.16417 | -12.09939 | 38246 ft | 427 kts | 266° |
| 2026-04-26 14:32 | 55.15952 | -12.20287 | 38246 ft | 426 kts | 266° |
| 2026-04-26 14:33 | 55.15479 | -12.30611 | 38246 ft | 426 kts | 266° |
| 2026-04-26 14:33 | 55.14998 | -12.40933 | 38247 ft | 426 kts | 266° |
| 2026-04-26 14:34 | 55.14508 | -12.51244 | 38247 ft | 425 kts | 266° |
| 2026-04-26 14:34 | 55.14010 | -12.61536 | 38243 ft | 425 kts | 266° |
| 2026-04-26 14:35 | 55.13504 | -12.71827 | 38241 ft | 425 kts | 266° |
| 2026-04-26 14:35 | 55.12989 | -12.82110 | 38243 ft | 425 kts | 266° |
| 2026-04-26 14:36 | 55.12466 | -12.92384 | 38243 ft | 425 kts | 266° |
| 2026-04-26 14:36 | 55.11934 | -13.02662 | 38244 ft | 425 kts | 266° |
| 2026-04-26 14:37 | 55.11393 | -13.12934 | 38243 ft | 425 kts | 265° |
| 2026-04-26 14:37 | 55.10844 | -13.23207 | 38243 ft | 425 kts | 265° |
| 2026-04-26 14:38 | 55.10285 | -13.33474 | 38241 ft | 425 kts | 266° |
| 2026-04-26 14:38 | 55.09723 | -13.43672 | 38240 ft | 425 kts | 265° |
| 2026-04-26 14:39 | 55.09147 | -13.53941 | 38240 ft | 425 kts | 265° |
| 2026-04-26 14:39 | 55.08563 | -13.64198 | 38244 ft | 425 kts | 265° |
| 2026-04-26 14:40 | 55.07971 | -13.74452 | 38246 ft | 425 kts | 265° |
| 2026-04-26 14:40 | 55.07370 | -13.84706 | 38244 ft | 425 kts | 265° |
| 2026-04-26 14:41 | 55.06761 | -13.94947 | 38240 ft | 424 kts | 265° |
| 2026-04-26 14:41 | 55.06143 | -14.05190 | 38241 ft | 424 kts | 265° |
| 2026-04-26 14:42 | 55.05516 | -14.15425 | 38244 ft | 424 kts | 265° |
| 2026-04-26 14:42 | 55.04881 | -14.25662 | 38244 ft | 424 kts | 265° |
| 2026-04-26 14:43 | 55.04238 | -14.35893 | 38216 ft | 424 kts | 265° |
| 2026-04-26 14:43 | 55.03585 | -14.46122 | 38238 ft | 424 kts | 265° |
| 2026-04-26 14:44 | 55.02925 | -14.56347 | 38238 ft | 424 kts | 265° |
| 2026-04-26 14:44 | 55.02255 | -14.66569 | 38238 ft | 424 kts | 265° |
| 2026-04-26 14:45 | 55.01578 | -14.76782 | 38237 ft | 424 kts | 265° |
| 2026-04-26 14:45 | 55.00892 | -14.86993 | 38238 ft | 424 kts | 265° |
| 2026-04-26 14:46 | 55.00520 | -14.97216 | 38239 ft | 422 kts | 274° |
| 2026-04-26 14:46 | 55.01663 | -15.07172 | 38239 ft | 420 kts | 288° |
| 2026-04-26 14:47 | 55.03680 | -15.16739 | 38240 ft | 421 kts | 291° |
| 2026-04-26 14:47 | 55.05830 | -15.26164 | 38238 ft | 421 kts | 291° |
| 2026-04-26 14:48 | 55.07987 | -15.35663 | 38235 ft | 421 kts | 291° |
| 2026-04-26 14:48 | 55.10113 | -15.45191 | 38235 ft | 421 kts | 290° |
| 2026-04-26 14:49 | 55.12219 | -15.54736 | 38231 ft | 421 kts | 290° |
| 2026-04-26 14:49 | 55.14312 | -15.64281 | 38237 ft | 420 kts | 290° |
| 2026-04-26 14:50 | 55.16397 | -15.73826 | 38236 ft | 420 kts | 290° |
| 2026-04-26 14:50 | 55.18476 | -15.83387 | 38235 ft | 420 kts | 290° |
| 2026-04-26 14:51 | 55.20546 | -15.92946 | 38236 ft | 420 kts | 290° |
| 2026-04-26 14:51 | 55.22611 | -16.02526 | 38235 ft | 420 kts | 290° |
| 2026-04-26 14:52 | 55.24667 | -16.12109 | 38245 ft | 420 kts | 290° |
| 2026-04-26 14:52 | 55.26712 | -16.21687 | 38230 ft | 419 kts | 290° |
| 2026-04-26 14:53 | 55.28747 | -16.31262 | 38234 ft | 419 kts | 290° |
| 2026-04-26 14:53 | 55.30431 | -16.39222 | 38233 ft | 419 kts | 290° |
| 2026-04-26 14:54 | 55.32449 | -16.48805 | 38234 ft | 419 kts | 290° |
| 2026-04-26 14:54 | 55.34461 | -16.58398 | 38232 ft | 418 kts | 290° |
| 2026-04-26 14:55 | 55.36465 | -16.67999 | 38232 ft | 418 kts | 290° |
| 2026-04-26 14:55 | 55.38460 | -16.77607 | 38230 ft | 418 kts | 290° |
| 2026-04-26 14:56 | 55.40449 | -16.87231 | 38217 ft | 418 kts | 290° |
| 2026-04-26 14:56 | 55.42428 | -16.96849 | 38221 ft | 417 kts | 290° |
| 2026-04-26 14:57 | 55.44393 | -17.06445 | 38222 ft | 416 kts | 289° |
| 2026-04-26 14:57 | 55.46349 | -17.16046 | 38222 ft | 416 kts | 289° |
| 2026-04-26 14:58 | 55.48286 | -17.25597 | 38221 ft | 416 kts | 289° |
| 2026-04-26 14:58 | 55.50226 | -17.35217 | 38219 ft | 416 kts | 289° |
| 2026-04-26 14:59 | 55.52162 | -17.44854 | 38216 ft | 416 kts | 289° |
| 2026-04-26 14:59 | 55.54087 | -17.54492 | 38216 ft | 416 kts | 289° |
| 2026-04-26 15:00 | 55.56005 | -17.64138 | 38217 ft | 416 kts | 289° |
| 2026-04-26 15:00 | 55.57914 | -17.73788 | 38213 ft | 415 kts | 289° |
| 2026-04-26 15:01 | 55.59812 | -17.83427 | 38214 ft | 415 kts | 289° |
| 2026-04-26 15:01 | 55.61702 | -17.93072 | 38211 ft | 415 kts | 289° |
| 2026-04-26 15:02 | 55.63585 | -18.02734 | 38208 ft | 415 kts | 289° |
| 2026-04-26 15:02 | 55.65460 | -18.12401 | 38208 ft | 415 kts | 289° |
| 2026-04-26 15:03 | 55.67328 | -18.22080 | 38199 ft | 415 kts | 289° |
| 2026-04-26 15:03 | 55.69174 | -18.31692 | 38206 ft | 414 kts | 289° |
| 2026-04-26 15:04 | 55.71032 | -18.41422 | 38207 ft | 414 kts | 289° |
| 2026-04-26 15:04 | 55.72859 | -18.51033 | 38203 ft | 414 kts | 288° |
| 2026-04-26 15:05 | 55.74690 | -18.60711 | 38205 ft | 414 kts | 288° |
| 2026-04-26 15:05 | 55.76511 | -18.70393 | 38198 ft | 414 kts | 288° |
| 2026-04-26 15:06 | 55.78326 | -18.80089 | 38198 ft | 414 kts | 288° |
| 2026-04-26 15:06 | 55.80132 | -18.89785 | 38186 ft | 413 kts | 288° |
| 2026-04-26 15:07 | 55.82826 | -19.04344 | 38197 ft | 413 kts | 288° |
| 2026-04-26 15:07 | 55.84613 | -19.14062 | 38198 ft | 413 kts | 288° |
| 2026-04-26 15:08 | 55.86392 | -19.23787 | 38197 ft | 413 kts | 288° |
| 2026-04-26 15:08 | 55.88162 | -19.33516 | 38192 ft | 413 kts | 288° |
| 2026-04-26 15:09 | 55.89924 | -19.43257 | 38192 ft | 413 kts | 287° |
| 2026-04-26 15:09 | 55.91679 | -19.53007 | 38192 ft | 413 kts | 287° |
| 2026-04-26 15:10 | 55.93132 | -19.61115 | 38187 ft | 413 kts | 287° |
| 2026-04-26 15:10 | 55.95162 | -19.72503 | 38189 ft | 412 kts | 287° |
| 2026-04-26 15:11 | 55.96887 | -19.82240 | 38189 ft | 411 kts | 287° |
| 2026-04-26 15:11 | 55.98605 | -19.91987 | 38184 ft | 411 kts | 287° |
| 2026-04-26 15:12 | 56.00284 | -20.01757 | 38184 ft | 411 kts | 285° |
| 2026-04-26 15:12 | 56.01742 | -20.11643 | 38185 ft | 411 kts | 284° |
| 2026-04-26 15:13 | 56.03107 | -20.21499 | 38186 ft | 411 kts | 283° |
| 2026-04-26 15:13 | 56.04484 | -20.31419 | 38180 ft | 411 kts | 283° |
| 2026-04-26 15:14 | 56.05872 | -20.41349 | 38184 ft | 411 kts | 283° |
| 2026-04-26 15:14 | 56.07258 | -20.51278 | 38184 ft | 411 kts | 283° |
| 2026-04-26 15:15 | 56.08637 | -20.61213 | 38181 ft | 411 kts | 283° |
| 2026-04-26 15:15 | 56.10007 | -20.71162 | 38181 ft | 411 kts | 283° |
| 2026-04-26 15:16 | 56.11368 | -20.81108 | 38181 ft | 411 kts | 283° |
| 2026-04-26 15:16 | 56.12722 | -20.91067 | 38181 ft | 411 kts | 283° |
| 2026-04-26 15:17 | 56.13840 | -20.99340 | 38181 ft | 411 kts | 282° |
| 2026-04-26 15:17 | 56.15401 | -21.10976 | 38176 ft | 410 kts | 282° |
| 2026-04-26 15:18 | 56.16727 | -21.20929 | 38176 ft | 410 kts | 282° |
| 2026-04-26 15:18 | 56.18044 | -21.30886 | 38173 ft | 410 kts | 282° |
| 2026-04-26 15:19 | 56.19354 | -21.40851 | 38170 ft | 410 kts | 282° |
| 2026-04-26 15:19 | 56.20656 | -21.50823 | 38167 ft | 410 kts | 282° |
| 2026-04-26 15:20 | 56.21949 | -21.60800 | 38168 ft | 410 kts | 282° |
| 2026-04-26 15:20 | 56.23236 | -21.70790 | 38162 ft | 411 kts | 281° |
| 2026-04-26 15:21 | 56.24518 | -21.80814 | 38159 ft | 412 kts | 281° |
| 2026-04-26 15:21 | 56.25791 | -21.90844 | 38163 ft | 412 kts | 281° |
| 2026-04-26 15:22 | 56.27056 | -22.00878 | 38158 ft | 411 kts | 281° |
| 2026-04-26 15:22 | 56.28302 | -22.10835 | 38148 ft | 411 kts | 281° |
| 2026-04-26 15:23 | 56.29550 | -22.20872 | 38153 ft | 411 kts | 281° |
| 2026-04-26 15:23 | 56.30789 | -22.30915 | 38154 ft | 411 kts | 281° |
| 2026-04-26 15:24 | 56.32020 | -22.40957 | 38148 ft | 410 kts | 281° |
| 2026-04-26 15:24 | 56.33240 | -22.50986 | 38140 ft | 409 kts | 280° |
| 2026-04-26 15:25 | 56.34254 | -22.59381 | 38141 ft | 409 kts | 280° |
| 2026-04-26 15:25 | 56.35653 | -22.71047 | 38138 ft | 409 kts | 280° |
| 2026-04-26 15:26 | 56.36847 | -22.81085 | 38141 ft | 410 kts | 280° |
| 2026-04-26 15:26 | 56.38036 | -22.91152 | 38128 ft | 411 kts | 280° |
| 2026-04-26 15:27 | 56.39218 | -23.01234 | 38127 ft | 411 kts | 280° |
| 2026-04-26 15:27 | 56.40395 | -23.11350 | 38127 ft | 413 kts | 279° |
| 2026-04-26 15:28 | 56.41570 | -23.21534 | 38119 ft | 415 kts | 279° |
| 2026-04-26 15:28 | 56.42739 | -23.31738 | 38119 ft | 415 kts | 279° |
| 2026-04-26 15:29 | 56.43899 | -23.41945 | 38119 ft | 415 kts | 279° |
| 2026-04-26 15:30 | 56.46194 | -23.62369 | 38111 ft | 414 kts | 279° |
| 2026-04-26 15:30 | 56.47328 | -23.72586 | 38106 ft | 414 kts | 279° |
| 2026-04-26 15:31 | 56.49017 | -23.87962 | 38098 ft | 417 kts | 278° |
| 2026-04-26 15:32 | 56.50318 | -23.99926 | 38094 ft | 417 kts | 278° |
| 2026-04-26 15:32 | 56.51792 | -24.13632 | 38095 ft | 417 kts | 278° |
| 2026-04-26 15:33 | 56.52898 | -24.24009 | 38091 ft | 417 kts | 278° |
| 2026-04-26 15:33 | 56.53980 | -24.34245 | 38091 ft | 417 kts | 278° |
| 2026-04-26 15:34 | 56.55061 | -24.44563 | 38090 ft | 417 kts | 278° |
| 2026-04-26 15:34 | 56.56134 | -24.54890 | 38087 ft | 417 kts | 278° |
| 2026-04-26 15:35 | 56.57198 | -24.65222 | 38085 ft | 417 kts | 278° |
| 2026-04-26 15:35 | 56.58254 | -24.75562 | 38076 ft | 417 kts | 278° |
| 2026-04-26 15:36 | 56.59301 | -24.85905 | 38076 ft | 417 kts | 278° |
| 2026-04-26 15:36 | 56.60339 | -24.96250 | 38064 ft | 417 kts | 277° |
| 2026-04-26 15:37 | 56.61369 | -25.06604 | 38059 ft | 417 kts | 277° |
| 2026-04-26 15:37 | 56.62390 | -25.16963 | 38048 ft | 417 kts | 277° |
| 2026-04-26 15:38 | 56.63406 | -25.27363 | 38051 ft | 419 kts | 277° |
| 2026-04-26 15:38 | 56.64416 | -25.37797 | 38051 ft | 419 kts | 277° |
| 2026-04-26 15:39 | 56.65417 | -25.48238 | 38036 ft | 419 kts | 277° |
| 2026-04-26 15:39 | 56.66083 | -25.55228 | 38037 ft | 420 kts | 277° |
| 2026-04-26 15:40 | 56.67394 | -25.69131 | 38036 ft | 419 kts | 277° |
| 2026-04-26 15:40 | 56.68367 | -25.79563 | 38024 ft | 418 kts | 277° |
| 2026-04-26 15:41 | 56.69331 | -25.89995 | 38023 ft | 418 kts | 276° |
| 2026-04-26 15:41 | 56.70284 | -26.00418 | 38023 ft | 417 kts | 276° |
| 2026-04-26 15:42 | 56.71069 | -26.09076 | 38010 ft | 417 kts | 276° |
| 2026-04-26 15:42 | 56.72005 | -26.19492 | 38007 ft | 417 kts | 276° |
| 2026-04-26 15:43 | 56.72932 | -26.29910 | 37998 ft | 417 kts | 276° |
| 2026-04-26 15:44 | 56.74307 | -26.45552 | 37999 ft | 417 kts | 276° |
| 2026-04-26 15:44 | 56.75662 | -26.61202 | 37985 ft | 417 kts | 275° |
| 2026-04-26 15:45 | 56.77001 | -26.76907 | 37983 ft | 419 kts | 275° |
| 2026-04-26 15:46 | 56.78323 | -26.92656 | 37967 ft | 419 kts | 275° |
| 2026-04-26 15:46 | 56.79047 | -27.01382 | 37968 ft | 419 kts | 275° |
| 2026-04-26 15:47 | 56.80476 | -27.18841 | 37951 ft | 419 kts | 275° |
| 2026-04-26 15:48 | 56.81329 | -27.29424 | 37950 ft | 418 kts | 275° |
| 2026-04-26 15:48 | 56.82169 | -27.39949 | 37951 ft | 420 kts | 274° |
| 2026-04-26 15:49 | 56.82998 | -27.50451 | 37955 ft | 421 kts | 274° |
| 2026-04-26 15:49 | 56.83825 | -27.61048 | 37946 ft | 422 kts | 274° |
| 2026-04-26 15:50 | 56.84643 | -27.71657 | 37930 ft | 422 kts | 274° |
| 2026-04-26 15:50 | 56.85452 | -27.82272 | 37921 ft | 422 kts | 273° |
| 2026-04-26 15:51 | 56.86253 | -27.92886 | 37924 ft | 422 kts | 273° |
| 2026-04-26 15:51 | 56.87045 | -28.03510 | 37914 ft | 422 kts | 272° |
| 2026-04-26 15:52 | 56.87827 | -28.14154 | 37912 ft | 424 kts | 272° |
| 2026-04-26 15:52 | 56.88605 | -28.24844 | 37912 ft | 424 kts | 272° |
| 2026-04-26 15:53 | 56.89374 | -28.35541 | 37901 ft | 424 kts | 272° |
| 2026-04-26 15:53 | 56.90135 | -28.46244 | 37910 ft | 424 kts | 272° |
| 2026-04-26 15:54 | 56.90888 | -28.56966 | 37893 ft | 425 kts | 272° |
| 2026-04-26 15:54 | 56.91629 | -28.67685 | 37881 ft | 422 kts | 272° |
| 2026-04-26 15:55 | 56.92354 | -28.78257 | 37890 ft | 417 kts | 271° |
| 2026-04-26 15:55 | 56.93063 | -28.88783 | 37879 ft | 417 kts | 271° |
| 2026-04-26 15:56 | 56.93763 | -28.99341 | 37872 ft | 418 kts | 271° |
| 2026-04-26 15:56 | 56.94456 | -29.09898 | 37874 ft | 418 kts | 271° |
| 2026-04-26 15:57 | 56.95142 | -29.20463 | 37860 ft | 418 kts | 271° |
| 2026-04-26 15:57 | 56.95818 | -29.31032 | 37861 ft | 418 kts | 271° |
| 2026-04-26 15:58 | 56.96486 | -29.41600 | 37879 ft | 418 kts | 271° |
| 2026-04-26 15:58 | 56.97144 | -29.52174 | 37852 ft | 418 kts | 270° |
| 2026-04-26 15:59 | 56.97794 | -29.62771 | 37852 ft | 418 kts | 270° |
| 2026-04-26 15:59 | 56.98436 | -29.73375 | 37853 ft | 418 kts | 270° |
| 2026-04-26 16:00 | 56.99069 | -29.83973 | 37860 ft | 418 kts | 270° |
| 2026-04-26 16:00 | 56.99693 | -29.94582 | 37846 ft | 418 kts | 270° |
| 2026-04-26 16:01 | 57.00247 | -30.05110 | 37839 ft | 417 kts | 269° |
| 2026-04-26 16:01 | 57.00661 | -30.15708 | 37833 ft | 416 kts | 268° |
| 2026-04-26 16:02 | 57.01043 | -30.26310 | 37838 ft | 416 kts | 268° |
| 2026-04-26 16:02 | 57.01428 | -30.36887 | 37858 ft | 415 kts | 268° |
| 2026-04-26 16:03 | 57.01812 | -30.47484 | 37821 ft | 417 kts | 267° |
| 2026-04-26 16:03 | 57.02192 | -30.58107 | 37821 ft | 417 kts | 267° |
| 2026-04-26 16:04 | 57.02563 | -30.68737 | 37817 ft | 417 kts | 267° |
| 2026-04-26 16:04 | 57.02926 | -30.79372 | 37810 ft | 417 kts | 267° |
| 2026-04-26 16:05 | 57.03278 | -30.90001 | 37810 ft | 417 kts | 267° |
| 2026-04-26 16:05 | 57.03621 | -31.00633 | 37808 ft | 418 kts | 267° |
| 2026-04-26 16:06 | 57.03956 | -31.11294 | 37804 ft | 418 kts | 266° |
| 2026-04-26 16:06 | 57.04283 | -31.21955 | 37796 ft | 418 kts | 266° |
| 2026-04-26 16:07 | 57.04600 | -31.32621 | 37796 ft | 418 kts | 266° |
| 2026-04-26 16:07 | 57.04908 | -31.43289 | 37802 ft | 419 kts | 266° |
| 2026-04-26 16:08 | 57.05207 | -31.53984 | 37791 ft | 420 kts | 266° |
| 2026-04-26 16:08 | 57.05498 | -31.64690 | 37787 ft | 420 kts | 266° |
| 2026-04-26 16:09 | 57.05780 | -31.75395 | 37784 ft | 420 kts | 266° |
| 2026-04-26 16:09 | 57.06053 | -31.86105 | 37777 ft | 419 kts | 266° |
| 2026-04-26 16:10 | 57.06315 | -31.96740 | 37776 ft | 419 kts | 265° |
| 2026-04-26 16:10 | 57.06569 | -32.07443 | 37777 ft | 419 kts | 265° |
| 2026-04-26 16:11 | 57.06814 | -32.18151 | 37774 ft | 419 kts | 265° |
| 2026-04-26 16:11 | 57.07050 | -32.28850 | 37769 ft | 419 kts | 265° |
| 2026-04-26 16:12 | 57.07277 | -32.39558 | 37776 ft | 419 kts | 265° |
| 2026-04-26 16:12 | 57.07598 | -32.55710 | 37770 ft | 424 kts | 265° |
| 2026-04-26 16:13 | 57.07806 | -32.66544 | 37754 ft | 424 kts | 265° |
| 2026-04-26 16:13 | 57.08005 | -32.77383 | 37751 ft | 424 kts | 264° |
| 2026-04-26 16:14 | 57.08193 | -32.88215 | 37742 ft | 424 kts | 264° |
| 2026-04-26 16:15 | 57.08456 | -33.04462 | 37753 ft | 424 kts | 264° |
| 2026-04-26 16:15 | 57.08620 | -33.15300 | 37755 ft | 426 kts | 264° |
| 2026-04-26 16:16 | 57.08848 | -33.31677 | 37735 ft | 428 kts | 264° |
| 2026-04-26 16:16 | 57.08991 | -33.42605 | 37739 ft | 427 kts | 264° |
| 2026-04-26 16:17 | 57.09124 | -33.53533 | 37736 ft | 427 kts | 264° |
| 2026-04-26 16:17 | 57.09247 | -33.64461 | 37736 ft | 427 kts | 264° |
| 2026-04-26 16:18 | 57.09413 | -33.80837 | 37750 ft | 427 kts | 264° |
| 2026-04-26 16:19 | 57.09556 | -33.97287 | 37724 ft | 430 kts | 264° |
| 2026-04-26 16:20 | 57.09680 | -34.13752 | 37785 ft | 434 kts | 264° |
| 2026-04-26 16:20 | 57.09749 | -34.24902 | 38012 ft | 438 kts | 264° |
| 2026-04-26 16:20 | 57.09781 | -34.30509 | 38153 ft | 439 kts | 264° |
| 2026-04-26 16:21 | 57.09812 | -34.36132 | 38304 ft | 440 kts | 264° |
| 2026-04-26 16:21 | 57.09840 | -34.41771 | 38428 ft | 441 kts | 264° |
| 2026-04-26 16:21 | 57.09865 | -34.47419 | 38581 ft | 442 kts | 264° |
| 2026-04-26 16:21 | 57.09888 | -34.53080 | 38701 ft | 443 kts | 264° |
| 2026-04-26 16:22 | 57.09926 | -34.64419 | 38708 ft | 443 kts | 264° |
| 2026-04-26 16:22 | 57.09954 | -34.75751 | 38705 ft | 443 kts | 264° |
| 2026-04-26 16:23 | 57.09971 | -34.87078 | 38705 ft | 443 kts | 264° |
| 2026-04-26 16:23 | 57.09978 | -34.98406 | 38694 ft | 443 kts | 264° |
| 2026-04-26 16:24 | 57.09974 | -35.09728 | 38691 ft | 443 kts | 264° |
| 2026-04-26 16:24 | 57.09960 | -35.21051 | 38691 ft | 443 kts | 264° |
| 2026-04-26 16:25 | 57.09936 | -35.32372 | 38684 ft | 443 kts | 264° |
| 2026-04-26 16:25 | 57.09901 | -35.43684 | 38683 ft | 442 kts | 264° |
| 2026-04-26 16:26 | 57.09865 | -35.53087 | 38698 ft | 443 kts | 265° |
| 2026-04-26 16:26 | 57.09802 | -35.66344 | 38678 ft | 444 kts | 265° |
| 2026-04-26 16:27 | 57.09737 | -35.77706 | 38669 ft | 444 kts | 265° |
| 2026-04-26 16:27 | 57.09661 | -35.89067 | 38664 ft | 444 kts | 265° |
| 2026-04-26 16:28 | 57.09576 | -36.00425 | 38670 ft | 445 kts | 265° |
| 2026-04-26 16:28 | 57.09496 | -36.09902 | 38662 ft | 447 kts | 265° |
| 2026-04-26 16:29 | 57.09390 | -36.21342 | 38647 ft | 448 kts | 265° |
| 2026-04-26 16:29 | 57.09255 | -36.34639 | 38652 ft | 448 kts | 265° |
| 2026-04-26 16:30 | 57.09149 | -36.44223 | 38651 ft | 447 kts | 264° |
| 2026-04-26 16:30 | 57.09013 | -36.55665 | 38659 ft | 448 kts | 264° |
| 2026-04-26 16:31 | 57.08864 | -36.67171 | 38643 ft | 452 kts | 264° |
| 2026-04-26 16:31 | 57.08703 | -36.78753 | 38637 ft | 454 kts | 264° |
| 2026-04-26 16:32 | 57.08534 | -36.90347 | 38639 ft | 454 kts | 264° |
| 2026-04-26 16:32 | 57.08354 | -37.01943 | 38622 ft | 454 kts | 264° |
| 2026-04-26 16:33 | 57.08162 | -37.13525 | 38625 ft | 453 kts | 264° |
| 2026-04-26 16:33 | 57.07960 | -37.25115 | 38626 ft | 453 kts | 264° |
| 2026-04-26 16:34 | 57.07747 | -37.36693 | 38612 ft | 453 kts | 263° |
| 2026-04-26 16:34 | 57.07523 | -37.48282 | 38613 ft | 454 kts | 263° |
| 2026-04-26 16:35 | 57.07288 | -37.59820 | 38618 ft | 455 kts | 264° |
| 2026-04-26 16:35 | 57.07041 | -37.71459 | 38609 ft | 456 kts | 264° |
| 2026-04-26 16:36 | 57.06785 | -37.83104 | 38600 ft | 456 kts | 264° |
| 2026-04-26 16:36 | 57.06517 | -37.94746 | 38598 ft | 456 kts | 264° |
| 2026-04-26 16:37 | 57.06238 | -38.06382 | 38595 ft | 456 kts | 264° |
| 2026-04-26 16:37 | 57.05949 | -38.18017 | 38587 ft | 455 kts | 264° |
| 2026-04-26 16:38 | 57.05649 | -38.29622 | 38583 ft | 454 kts | 264° |
| 2026-04-26 16:38 | 57.05340 | -38.41202 | 38584 ft | 454 kts | 264° |
| 2026-04-26 16:39 | 57.05019 | -38.52776 | 38587 ft | 454 kts | 263° |
| 2026-04-26 16:39 | 57.04688 | -38.64355 | 38578 ft | 454 kts | 264° |
| 2026-04-26 16:40 | 57.04344 | -38.75966 | 38573 ft | 456 kts | 263° |
| 2026-04-26 16:40 | 57.03990 | -38.87590 | 38572 ft | 456 kts | 263° |
| 2026-04-26 16:41 | 57.03625 | -38.99222 | 38570 ft | 456 kts | 263° |
| 2026-04-26 16:41 | 57.03250 | -39.10838 | 38562 ft | 456 kts | 263° |
| 2026-04-26 16:42 | 57.02863 | -39.22467 | 38561 ft | 456 kts | 263° |
| 2026-04-26 16:42 | 57.02466 | -39.34082 | 38559 ft | 456 kts | 263° |
| 2026-04-26 16:43 | 57.02059 | -39.45685 | 38548 ft | 456 kts | 263° |
| 2026-04-26 16:43 | 57.01640 | -39.57292 | 38553 ft | 456 kts | 263° |
| 2026-04-26 16:44 | 57.01210 | -39.68911 | 38554 ft | 457 kts | 263° |
| 2026-04-26 16:44 | 57.00767 | -39.80575 | 38551 ft | 459 kts | 263° |
| 2026-04-26 16:45 | 57.00314 | -39.92251 | 38541 ft | 459 kts | 263° |
| 2026-04-26 16:45 | 56.99812 | -40.03903 | 38540 ft | 458 kts | 261° |
| 2026-04-26 16:46 | 56.99143 | -40.15510 | 38537 ft | 458 kts | 261° |
| 2026-04-26 16:46 | 56.98424 | -40.27103 | 38531 ft | 457 kts | 261° |
| 2026-04-26 16:47 | 56.97710 | -40.38622 | 38530 ft | 458 kts | 261° |
| 2026-04-26 16:47 | 56.96992 | -40.50223 | 38523 ft | 458 kts | 261° |
| 2026-04-26 16:48 | 56.96268 | -40.61825 | 38523 ft | 458 kts | 261° |
| 2026-04-26 16:48 | 56.95533 | -40.73418 | 38507 ft | 458 kts | 262° |
| 2026-04-26 16:49 | 56.94788 | -40.84993 | 38505 ft | 457 kts | 262° |
| 2026-04-26 16:49 | 56.94032 | -40.96569 | 38515 ft | 458 kts | 261° |
| 2026-04-26 16:50 | 56.93264 | -41.08153 | 38515 ft | 459 kts | 261° |
| 2026-04-26 16:50 | 56.92484 | -41.19754 | 38508 ft | 459 kts | 261° |
| 2026-04-26 16:51 | 56.91694 | -41.31358 | 38500 ft | 459 kts | 261° |
| 2026-04-26 16:51 | 56.90892 | -41.42942 | 38500 ft | 458 kts | 261° |
| 2026-04-26 16:52 | 56.90216 | -41.52569 | 38502 ft | 459 kts | 261° |
| 2026-04-26 16:52 | 56.89255 | -41.66098 | 38498 ft | 459 kts | 260° |
| 2026-04-26 16:53 | 56.88418 | -41.77710 | 38490 ft | 461 kts | 262° |
| 2026-04-26 16:53 | 56.87567 | -41.89354 | 38490 ft | 463 kts | 261° |
| 2026-04-26 16:54 | 56.86706 | -42.01015 | 38477 ft | 463 kts | 261° |
| 2026-04-26 16:54 | 56.85840 | -42.12588 | 38478 ft | 463 kts | 260° |
| 2026-04-26 16:55 | 56.84956 | -42.24236 | 38479 ft | 463 kts | 261° |
| 2026-04-26 16:55 | 56.84061 | -42.35877 | 38486 ft | 463 kts | 261° |
| 2026-04-26 16:56 | 56.82696 | -42.53365 | 38478 ft | 464 kts | 260° |
| 2026-04-26 16:57 | 56.81770 | -42.65039 | 38462 ft | 465 kts | 261° |
| 2026-04-26 16:57 | 56.80362 | -42.82532 | 38470 ft | 465 kts | 261° |
| 2026-04-26 16:58 | 56.79571 | -42.92228 | 38473 ft | 465 kts | 261° |
| 2026-04-26 16:59 | 56.77956 | -43.11712 | 38470 ft | 467 kts | 261° |
| 2026-04-26 17:00 | 56.75974 | -43.35128 | 38468 ft | 467 kts | 261° |
| 2026-04-26 17:00 | 56.74466 | -43.52601 | 38467 ft | 468 kts | 261° |
| 2026-04-26 17:01 | 56.73441 | -43.64296 | 38465 ft | 468 kts | 261° |
| 2026-04-26 17:01 | 56.72405 | -43.75989 | 38461 ft | 468 kts | 261° |
| 2026-04-26 17:02 | 56.71356 | -43.87705 | 38469 ft | 469 kts | 261° |
| 2026-04-26 17:02 | 56.70296 | -43.99420 | 38458 ft | 469 kts | 261° |
| 2026-04-26 17:03 | 56.69224 | -44.11129 | 38481 ft | 469 kts | 260° |
| 2026-04-26 17:03 | 56.68141 | -44.22833 | 38480 ft | 469 kts | 260° |
| 2026-04-26 17:04 | 56.67047 | -44.34533 | 38486 ft | 469 kts | 260° |
| 2026-04-26 17:04 | 56.65941 | -44.46228 | 38483 ft | 470 kts | 261° |
| 2026-04-26 17:05 | 56.64823 | -44.57943 | 38488 ft | 470 kts | 261° |
| 2026-04-26 17:05 | 56.63693 | -44.69649 | 38486 ft | 471 kts | 260° |
| 2026-04-26 17:06 | 56.62553 | -44.81346 | 38486 ft | 470 kts | 260° |
| 2026-04-26 17:06 | 56.61400 | -44.93049 | 38494 ft | 470 kts | 261° |
| 2026-04-26 17:07 | 56.60242 | -45.04687 | 38499 ft | 468 kts | 260° |
| 2026-04-26 17:07 | 56.59075 | -45.16297 | 38501 ft | 468 kts | 261° |
| 2026-04-26 17:08 | 56.57895 | -45.27937 | 38503 ft | 469 kts | 260° |
| 2026-04-26 17:08 | 56.56702 | -45.39575 | 38512 ft | 470 kts | 260° |
| 2026-04-26 17:09 | 56.55702 | -45.49241 | 38511 ft | 469 kts | 261° |
| 2026-04-26 17:09 | 56.54283 | -45.62834 | 38512 ft | 469 kts | 260° |
| 2026-04-26 17:10 | 56.53059 | -45.74446 | 38512 ft | 469 kts | 260° |
| 2026-04-26 17:10 | 56.51823 | -45.86051 | 38530 ft | 469 kts | 259° |
| 2026-04-26 17:11 | 56.50577 | -45.97647 | 38521 ft | 469 kts | 261° |
| 2026-04-26 17:11 | 56.49321 | -46.09230 | 38528 ft | 468 kts | 261° |
| 2026-04-26 17:12 | 56.47430 | -46.26482 | 38545 ft | 468 kts | 261° |
| 2026-04-26 17:13 | 56.45502 | -46.43792 | 38548 ft | 469 kts | 261° |
| 2026-04-26 17:14 | 56.43546 | -46.61144 | 38561 ft | 470 kts | 260° |
| 2026-04-26 17:14 | 56.41564 | -46.78494 | 38567 ft | 470 kts | 259° |
| 2026-04-26 17:15 | 56.39556 | -46.95833 | 38570 ft | 470 kts | 261° |
| 2026-04-26 17:16 | 56.38204 | -47.07377 | 38576 ft | 470 kts | 261° |
| 2026-04-26 17:16 | 56.36841 | -47.18938 | 38585 ft | 472 kts | 261° |
| 2026-04-26 17:17 | 56.35698 | -47.28569 | 38589 ft | 472 kts | 260° |
| 2026-04-26 17:17 | 56.34308 | -47.40153 | 38590 ft | 473 kts | 259° |
| 2026-04-26 17:18 | 56.32907 | -47.51731 | 38606 ft | 473 kts | 260° |
| 2026-04-26 17:18 | 56.31497 | -47.63304 | 38606 ft | 473 kts | 260° |
| 2026-04-26 17:19 | 56.29358 | -47.80649 | 38614 ft | 475 kts | 262° |
| 2026-04-26 17:19 | 56.27912 | -47.92268 | 38625 ft | 476 kts | 261° |
| 2026-04-26 17:20 | 56.26701 | -48.01922 | 38622 ft | 476 kts | 259° |
| 2026-04-26 17:20 | 56.24982 | -48.15498 | 38633 ft | 477 kts | 260° |
| 2026-04-26 17:21 | 56.23506 | -48.27063 | 38651 ft | 473 kts | 261° |
| 2026-04-26 17:21 | 56.22025 | -48.38570 | 38644 ft | 472 kts | 262° |
| 2026-04-26 17:22 | 56.20532 | -48.50094 | 38654 ft | 474 kts | 260° |
| 2026-04-26 17:22 | 56.19026 | -48.61617 | 38655 ft | 474 kts | 261° |
| 2026-04-26 17:23 | 56.17511 | -48.73135 | 38668 ft | 474 kts | 261° |
| 2026-04-26 17:23 | 56.15985 | -48.84645 | 38674 ft | 474 kts | 259° |
| 2026-04-26 17:24 | 56.14443 | -48.96151 | 38677 ft | 475 kts | 261° |
| 2026-04-26 17:24 | 56.12892 | -49.07637 | 38689 ft | 474 kts | 261° |
| 2026-04-26 17:25 | 56.11343 | -49.19032 | 38696 ft | 473 kts | 261° |
| 2026-04-26 17:25 | 56.09776 | -49.30488 | 38696 ft | 473 kts | 260° |
| 2026-04-26 17:26 | 56.08197 | -49.41941 | 38709 ft | 474 kts | 261° |
| 2026-04-26 17:26 | 56.06609 | -49.53376 | 38708 ft | 474 kts | 260° |
| 2026-04-26 17:27 | 56.05007 | -49.64798 | 38721 ft | 473 kts | 260° |
| 2026-04-26 17:27 | 56.03396 | -49.76227 | 38721 ft | 474 kts | 261° |
| 2026-04-26 17:28 | 56.01771 | -49.87679 | 38732 ft | 475 kts | 259° |
| 2026-04-26 17:28 | 56.00052 | -49.99080 | 38742 ft | 478 kts | 255° |
| 2026-04-26 17:29 | 55.98028 | -50.08279 | 38737 ft | 479 kts | 252° |
| 2026-04-26 17:29 | 55.94964 | -50.21086 | 38750 ft | 481 kts | 250° |
| 2026-04-26 17:30 | 55.92288 | -50.32014 | 38763 ft | 481 kts | 251° |
| 2026-04-26 17:30 | 55.89607 | -50.42943 | 38767 ft | 482 kts | 251° |
| 2026-04-26 17:31 | 55.86921 | -50.53880 | 38776 ft | 481 kts | 251° |
| 2026-04-26 17:31 | 55.84231 | -50.64797 | 38776 ft | 481 kts | 251° |
| 2026-04-26 17:32 | 55.81532 | -50.75706 | 38779 ft | 481 kts | 250° |
| 2026-04-26 17:32 | 55.78823 | -50.86595 | 38792 ft | 482 kts | 250° |
| 2026-04-26 17:33 | 55.76096 | -50.97501 | 38801 ft | 483 kts | 250° |
| 2026-04-26 17:34 | 55.71984 | -51.13841 | 38806 ft | 483 kts | 250° |
| 2026-04-26 17:34 | 55.69249 | -51.24645 | 38806 ft | 483 kts | 250° |
| 2026-04-26 17:35 | 55.66487 | -51.35503 | 38808 ft | 483 kts | 250° |
| 2026-04-26 17:35 | 55.63722 | -51.46310 | 38826 ft | 481 kts | 251° |
| 2026-04-26 17:36 | 55.60960 | -51.57063 | 38827 ft | 480 kts | 250° |
| 2026-04-26 17:36 | 55.58187 | -51.67809 | 38829 ft | 480 kts | 250° |
| 2026-04-26 17:37 | 55.55405 | -51.78538 | 38832 ft | 480 kts | 250° |
| 2026-04-26 17:37 | 55.52613 | -51.89253 | 38845 ft | 480 kts | 250° |
| 2026-04-26 17:38 | 55.48408 | -52.05295 | 38884 ft | 481 kts | 250° |
| 2026-04-26 17:38 | 55.46999 | -52.10647 | 39003 ft | 482 kts | 250° |
| 2026-04-26 17:38 | 55.45583 | -52.16009 | 39186 ft | 482 kts | 250° |
| 2026-04-26 17:39 | 55.44170 | -52.21348 | 39379 ft | 481 kts | 250° |
| 2026-04-26 17:39 | 55.42754 | -52.26683 | 39558 ft | 480 kts | 250° |
| 2026-04-26 17:39 | 55.41340 | -52.32002 | 39716 ft | 480 kts | 250° |
| 2026-04-26 17:39 | 55.39920 | -52.37330 | 39855 ft | 481 kts | 250° |
| 2026-04-26 17:40 | 55.37549 | -52.46205 | 39871 ft | 484 kts | 249° |
| 2026-04-26 17:40 | 55.34188 | -52.58717 | 39873 ft | 484 kts | 249° |
| 2026-04-26 17:41 | 55.31307 | -52.69379 | 39884 ft | 481 kts | 249° |
| 2026-04-26 17:41 | 55.28440 | -52.79941 | 39873 ft | 479 kts | 249° |
| 2026-04-26 17:42 | 55.25570 | -52.90477 | 39899 ft | 479 kts | 249° |
| 2026-04-26 17:42 | 55.22686 | -53.01019 | 39903 ft | 480 kts | 249° |
| 2026-04-26 17:43 | 55.19786 | -53.11566 | 39902 ft | 481 kts | 249° |
| 2026-04-26 17:43 | 55.16872 | -53.22111 | 39906 ft | 481 kts | 249° |
| 2026-04-26 17:44 | 55.13949 | -53.32640 | 39912 ft | 481 kts | 249° |
| 2026-04-26 17:44 | 55.11037 | -53.43085 | 39925 ft | 481 kts | 249° |
| 2026-04-26 17:45 | 55.08090 | -53.53610 | 39930 ft | 484 kts | 248° |
| 2026-04-26 17:45 | 55.05123 | -53.64155 | 39930 ft | 484 kts | 248° |
| 2026-04-26 17:46 | 55.02146 | -53.74685 | 39936 ft | 484 kts | 248° |
| 2026-04-26 17:46 | 54.99161 | -53.85196 | 39941 ft | 484 kts | 248° |
| 2026-04-26 17:47 | 54.96682 | -53.93889 | 39940 ft | 481 kts | 248° |
| 2026-04-26 17:47 | 54.93196 | -54.06061 | 39961 ft | 482 kts | 248° |
| 2026-04-26 17:48 | 54.90199 | -54.16482 | 39960 ft | 482 kts | 248° |
| 2026-04-26 17:48 | 54.87189 | -54.26893 | 39968 ft | 482 kts | 248° |
| 2026-04-26 17:49 | 54.84170 | -54.37292 | 39978 ft | 482 kts | 248° |
| 2026-04-26 17:49 | 54.81143 | -54.47670 | 39981 ft | 483 kts | 248° |
| 2026-04-26 17:50 | 54.78099 | -54.58067 | 39987 ft | 484 kts | 247° |
| 2026-04-26 17:50 | 54.75038 | -54.68467 | 39988 ft | 485 kts | 247° |
| 2026-04-26 17:51 | 54.71967 | -54.78857 | 40007 ft | 485 kts | 247° |
| 2026-04-26 17:51 | 54.68889 | -54.89225 | 40012 ft | 485 kts | 247° |
| 2026-04-26 17:52 | 54.65802 | -54.99583 | 40013 ft | 486 kts | 247° |
| 2026-04-26 17:52 | 54.62696 | -55.09956 | 40022 ft | 487 kts | 247° |
| 2026-04-26 17:53 | 54.59580 | -55.20318 | 40016 ft | 487 kts | 246° |
| 2026-04-26 17:54 | 54.54886 | -55.35838 | 40042 ft | 487 kts | 246° |
| 2026-04-26 17:54 | 54.51767 | -55.46096 | 40039 ft | 487 kts | 246° |
| 2026-04-26 17:55 | 54.48613 | -55.56427 | 40048 ft | 488 kts | 246° |
| 2026-04-26 17:55 | 54.45444 | -55.66758 | 40055 ft | 488 kts | 246° |
| 2026-04-26 17:56 | 54.42266 | -55.77074 | 40063 ft | 488 kts | 246° |
| 2026-04-26 17:57 | 54.35887 | -55.97653 | 40052 ft | 489 kts | 245° |
| 2026-04-26 17:57 | 54.32674 | -56.07952 | 40076 ft | 490 kts | 245° |
| 2026-04-26 17:58 | 54.26224 | -56.28486 | 40091 ft | 488 kts | 245° |
| 2026-04-26 17:59 | 54.21380 | -56.43798 | 40093 ft | 488 kts | 245° |
| 2026-04-26 17:59 | 54.18138 | -56.53996 | 40097 ft | 489 kts | 245° |
| 2026-04-26 18:00 | 54.14882 | -56.64190 | 40113 ft | 489 kts | 245° |
| 2026-04-26 18:00 | 54.11617 | -56.74370 | 40113 ft | 489 kts | 245° |
| 2026-04-26 18:01 | 54.08342 | -56.84537 | 40119 ft | 489 kts | 244° |
| 2026-04-26 18:01 | 54.05061 | -56.94679 | 40118 ft | 489 kts | 244° |
| 2026-04-26 18:02 | 54.02853 | -57.01360 | 40127 ft | 490 kts | 242° |
| 2026-04-26 18:02 | 53.97890 | -57.14398 | 40146 ft | 491 kts | 239° |
| 2026-04-26 18:03 | 53.94092 | -57.23951 | 40146 ft | 491 kts | 239° |
| 2026-04-26 18:03 | 53.90267 | -57.33645 | 40145 ft | 491 kts | 239° |
| 2026-04-26 18:04 | 53.87117 | -57.41670 | 40145 ft | 492 kts | 239° |
| 2026-04-26 18:05 | 53.80832 | -57.57648 | 40155 ft | 490 kts | 239° |
| 2026-04-26 18:05 | 53.77659 | -57.65675 | 40173 ft | 490 kts | 239° |
| 2026-04-26 18:06 | 53.73864 | -57.75242 | 40167 ft | 490 kts | 238° |
| 2026-04-26 18:06 | 53.70078 | -57.84747 | 40179 ft | 492 kts | 238° |
| 2026-04-26 18:07 | 53.66249 | -57.94324 | 40179 ft | 492 kts | 238° |
| 2026-04-26 18:07 | 53.62413 | -58.03880 | 40181 ft | 492 kts | 238° |
| 2026-04-26 18:08 | 53.58572 | -58.13412 | 40180 ft | 492 kts | 238° |
| 2026-04-26 18:08 | 53.54720 | -58.22936 | 40192 ft | 493 kts | 238° |
| 2026-04-26 18:09 | 53.50857 | -58.32452 | 40190 ft | 493 kts | 238° |
| 2026-04-26 18:09 | 53.46987 | -58.41948 | 40190 ft | 493 kts | 238° |
| 2026-04-26 18:10 | 53.43108 | -58.51432 | 40187 ft | 493 kts | 237° |
| 2026-04-26 18:10 | 53.39222 | -58.60896 | 40186 ft | 493 kts | 237° |
| 2026-04-26 18:11 | 53.35332 | -58.70334 | 40202 ft | 492 kts | 237° |
| 2026-04-26 18:11 | 53.31444 | -58.79733 | 40199 ft | 490 kts | 237° |
| 2026-04-26 18:12 | 53.27558 | -58.89092 | 40199 ft | 490 kts | 237° |
| 2026-04-26 18:12 | 53.23667 | -58.98431 | 40200 ft | 490 kts | 236° |
| 2026-04-26 18:13 | 53.19763 | -59.07763 | 40199 ft | 491 kts | 236° |
| 2026-04-26 18:13 | 53.15848 | -59.17089 | 40219 ft | 491 kts | 236° |
| 2026-04-26 18:14 | 53.11928 | -59.26393 | 40219 ft | 491 kts | 236° |
| 2026-04-26 18:14 | 53.08024 | -59.35623 | 40219 ft | 491 kts | 236° |
| 2026-04-26 18:15 | 53.04090 | -59.44891 | 40220 ft | 491 kts | 236° |
| 2026-04-26 18:15 | 53.00148 | -59.54144 | 40220 ft | 491 kts | 236° |
| 2026-04-26 18:16 | 52.96197 | -59.63384 | 40215 ft | 491 kts | 236° |
| 2026-04-26 18:16 | 52.90260 | -59.77207 | 40222 ft | 491 kts | 235° |
| 2026-04-26 18:17 | 52.86293 | -59.86402 | 40225 ft | 490 kts | 235° |
| 2026-04-26 18:17 | 52.82325 | -59.95563 | 40224 ft | 490 kts | 235° |
| 2026-04-26 18:18 | 52.78358 | -60.04692 | 40209 ft | 488 kts | 235° |
| 2026-04-26 18:18 | 52.74390 | -60.13788 | 40215 ft | 488 kts | 235° |
| 2026-04-26 18:19 | 52.70421 | -60.22857 | 40218 ft | 487 kts | 235° |
| 2026-04-26 18:19 | 52.66452 | -60.31892 | 40216 ft | 486 kts | 235° |
| 2026-04-26 18:20 | 52.62480 | -60.40902 | 40214 ft | 486 kts | 234° |
| 2026-04-26 18:20 | 52.59174 | -60.48377 | 40212 ft | 486 kts | 234° |
| 2026-04-26 18:21 | 52.54513 | -60.58879 | 40205 ft | 486 kts | 234° |
| 2026-04-26 18:21 | 52.50531 | -60.67818 | 40206 ft | 484 kts | 234° |
| 2026-04-26 18:22 | 52.46552 | -60.76717 | 40209 ft | 484 kts | 234° |
| 2026-04-26 18:22 | 52.42568 | -60.85597 | 40209 ft | 484 kts | 234° |
| 2026-04-26 18:23 | 52.38601 | -60.94408 | 40203 ft | 484 kts | 234° |
| 2026-04-26 18:23 | 52.34605 | -61.03254 | 40202 ft | 484 kts | 234° |
| 2026-04-26 18:24 | 52.30600 | -61.12088 | 40185 ft | 483 kts | 234° |
| 2026-04-26 18:24 | 52.26593 | -61.20897 | 40197 ft | 483 kts | 234° |
| 2026-04-26 18:25 | 52.22583 | -61.29683 | 40197 ft | 482 kts | 233° |
| 2026-04-26 18:25 | 52.18573 | -61.38438 | 40194 ft | 481 kts | 233° |
| 2026-04-26 18:26 | 52.14571 | -61.47146 | 40194 ft | 480 kts | 233° |
| 2026-04-26 18:26 | 52.10569 | -61.55823 | 40194 ft | 480 kts | 233° |
| 2026-04-26 18:27 | 52.06557 | -61.64495 | 40195 ft | 480 kts | 233° |
| 2026-04-26 18:27 | 52.02541 | -61.73144 | 40193 ft | 479 kts | 233° |
| 2026-04-26 18:28 | 51.98526 | -61.81762 | 40195 ft | 478 kts | 232° |
| 2026-04-26 18:28 | 51.94512 | -61.90352 | 40195 ft | 478 kts | 232° |
| 2026-04-26 18:29 | 51.90489 | -61.98928 | 40192 ft | 478 kts | 232° |
| 2026-04-26 18:29 | 51.86463 | -62.07486 | 40193 ft | 478 kts | 232° |
| 2026-04-26 18:30 | 51.82435 | -62.16018 | 40196 ft | 477 kts | 232° |
| 2026-04-26 18:30 | 51.78407 | -62.24521 | 40197 ft | 476 kts | 232° |
| 2026-04-26 18:31 | 51.74380 | -62.32995 | 40203 ft | 475 kts | 232° |
| 2026-04-26 18:31 | 51.70357 | -62.41431 | 40204 ft | 474 kts | 232° |
| 2026-04-26 18:32 | 51.66335 | -62.49839 | 40191 ft | 473 kts | 231° |
| 2026-04-26 18:32 | 51.62318 | -62.58207 | 40193 ft | 472 kts | 231° |
| 2026-04-26 18:33 | 51.58298 | -62.66558 | 40201 ft | 472 kts | 231° |
| 2026-04-26 18:33 | 51.54270 | -62.74895 | 40189 ft | 472 kts | 231° |
| 2026-04-26 18:34 | 51.50264 | -62.83162 | 40178 ft | 472 kts | 231° |
| 2026-04-26 18:34 | 51.46220 | -62.91479 | 40195 ft | 473 kts | 231° |
| 2026-04-26 18:35 | 51.42168 | -62.99787 | 40186 ft | 473 kts | 231° |
| 2026-04-26 18:35 | 51.38110 | -63.08079 | 40194 ft | 473 kts | 231° |
| 2026-04-26 18:36 | 51.34044 | -63.16362 | 40195 ft | 473 kts | 231° |
| 2026-04-26 18:36 | 51.29969 | -63.24636 | 40192 ft | 474 kts | 231° |
| 2026-04-26 18:37 | 51.25886 | -63.32900 | 40181 ft | 474 kts | 230° |
| 2026-04-26 18:37 | 51.21797 | -63.41152 | 40188 ft | 473 kts | 230° |
| 2026-04-26 18:38 | 51.17711 | -63.49370 | 40190 ft | 473 kts | 230° |
| 2026-04-26 18:38 | 51.13615 | -63.57580 | 40187 ft | 474 kts | 230° |
| 2026-04-26 18:39 | 51.09509 | -63.65786 | 40184 ft | 474 kts | 230° |
| 2026-04-26 18:39 | 51.05396 | -63.73979 | 40184 ft | 474 kts | 229° |
| 2026-04-26 18:40 | 51.01278 | -63.82156 | 40188 ft | 474 kts | 229° |
| 2026-04-26 18:40 | 50.97153 | -63.90322 | 40177 ft | 474 kts | 229° |
| 2026-04-26 18:41 | 50.93017 | -63.98482 | 40186 ft | 475 kts | 229° |
| 2026-04-26 18:41 | 50.88878 | -64.06624 | 40184 ft | 475 kts | 229° |
| 2026-04-26 18:42 | 50.84731 | -64.14758 | 40186 ft | 474 kts | 229° |
| 2026-04-26 18:42 | 50.80608 | -64.22818 | 40177 ft | 475 kts | 229° |
| 2026-04-26 18:43 | 50.76448 | -64.30923 | 40173 ft | 475 kts | 229° |
| 2026-04-26 18:43 | 50.72281 | -64.39018 | 40173 ft | 475 kts | 229° |
| 2026-04-26 18:44 | 50.68108 | -64.47098 | 40177 ft | 475 kts | 229° |
| 2026-04-26 18:44 | 50.63934 | -64.55156 | 40176 ft | 474 kts | 228° |
| 2026-04-26 18:45 | 50.59757 | -64.63196 | 40183 ft | 474 kts | 228° |
| 2026-04-26 18:45 | 50.55576 | -64.71217 | 40167 ft | 474 kts | 228° |
| 2026-04-26 18:46 | 50.51391 | -64.79221 | 40185 ft | 474 kts | 228° |
| 2026-04-26 18:46 | 50.47197 | -64.87218 | 40177 ft | 474 kts | 228° |
| 2026-04-26 18:47 | 50.42989 | -64.95214 | 40176 ft | 476 kts | 228° |
| 2026-04-26 18:47 | 50.38766 | -65.03217 | 40174 ft | 476 kts | 228° |
| 2026-04-26 18:48 | 50.34536 | -65.11209 | 40182 ft | 476 kts | 228° |
| 2026-04-26 18:48 | 50.30302 | -65.19184 | 40193 ft | 476 kts | 228° |
| 2026-04-26 18:49 | 50.26079 | -65.27114 | 40196 ft | 472 kts | 229° |
| 2026-04-26 18:49 | 50.21882 | -65.34972 | 40196 ft | 471 kts | 228° |
| 2026-04-26 18:50 | 50.17682 | -65.42809 | 40196 ft | 471 kts | 228° |
| 2026-04-26 18:50 | 50.13482 | -65.50623 | 40192 ft | 468 kts | 228° |
| 2026-04-26 18:51 | 50.09305 | -65.58374 | 40196 ft | 467 kts | 227° |
| 2026-04-26 18:51 | 50.05117 | -65.66119 | 40203 ft | 467 kts | 227° |
| 2026-04-26 18:52 | 50.01633 | -65.72545 | 40203 ft | 467 kts | 227° |
| 2026-04-26 18:52 | 49.97436 | -65.80266 | 40208 ft | 467 kts | 227° |
| 2026-04-26 18:53 | 49.93234 | -65.87974 | 40209 ft | 469 kts | 227° |
| 2026-04-26 18:53 | 49.89010 | -65.95698 | 40210 ft | 470 kts | 227° |
| 2026-04-26 18:54 | 49.84778 | -66.03413 | 40214 ft | 470 kts | 227° |
| 2026-04-26 18:54 | 49.80540 | -66.11119 | 40214 ft | 470 kts | 227° |
| 2026-04-26 18:55 | 49.76298 | -66.18806 | 40214 ft | 469 kts | 227° |
| 2026-04-26 18:55 | 49.72060 | -66.26467 | 40213 ft | 468 kts | 227° |
| 2026-04-26 18:56 | 49.67824 | -66.34100 | 40219 ft | 468 kts | 227° |
| 2026-04-26 18:56 | 49.63585 | -66.41715 | 40222 ft | 468 kts | 227° |
| 2026-04-26 18:57 | 49.60056 | -66.48040 | 40208 ft | 468 kts | 227° |
| 2026-04-26 18:57 | 49.55091 | -66.56910 | 40224 ft | 468 kts | 227° |
| 2026-04-26 18:58 | 49.50837 | -66.64486 | 40225 ft | 467 kts | 227° |
| 2026-04-26 18:58 | 49.46579 | -66.72048 | 40228 ft | 467 kts | 227° |
| 2026-04-26 18:59 | 49.42320 | -66.79590 | 40218 ft | 467 kts | 227° |
| 2026-04-26 18:59 | 49.38056 | -66.87119 | 40231 ft | 467 kts | 227° |
| 2026-04-26 19:00 | 49.33793 | -66.94624 | 40234 ft | 466 kts | 227° |
| 2026-04-26 19:00 | 49.29527 | -67.02114 | 40235 ft | 467 kts | 227° |
| 2026-04-26 19:01 | 49.25253 | -67.09596 | 40232 ft | 466 kts | 227° |
| 2026-04-26 19:01 | 49.20979 | -67.17057 | 40234 ft | 466 kts | 227° |
| 2026-04-26 19:02 | 49.16737 | -67.24441 | 40236 ft | 465 kts | 227° |
| 2026-04-26 19:02 | 49.13152 | -67.30665 | 40232 ft | 465 kts | 227° |
| 2026-04-26 19:03 | 49.08178 | -67.39275 | 40248 ft | 465 kts | 227° |
| 2026-04-26 19:03 | 49.03885 | -67.46684 | 40233 ft | 467 kts | 227° |
| 2026-04-26 19:04 | 48.99577 | -67.54097 | 40241 ft | 467 kts | 227° |
| 2026-04-26 19:04 | 48.95264 | -67.61499 | 40225 ft | 467 kts | 227° |
| 2026-04-26 19:05 | 48.88785 | -67.72579 | 40225 ft | 467 kts | 227° |
| 2026-04-26 19:06 | 48.84460 | -67.79948 | 40247 ft | 467 kts | 227° |
| 2026-04-26 19:06 | 48.80131 | -67.87304 | 40225 ft | 467 kts | 226° |
| 2026-04-26 19:07 | 48.75795 | -67.94651 | 40238 ft | 467 kts | 226° |
| 2026-04-26 19:07 | 48.71457 | -68.01982 | 40233 ft | 467 kts | 227° |
| 2026-04-26 19:08 | 48.67118 | -68.09293 | 40222 ft | 467 kts | 226° |
| 2026-04-26 19:08 | 48.62771 | -68.16597 | 40238 ft | 467 kts | 226° |
| 2026-04-26 19:09 | 48.58422 | -68.23885 | 40224 ft | 467 kts | 226° |
| 2026-04-26 19:09 | 48.54097 | -68.31112 | 40224 ft | 467 kts | 226° |
| 2026-04-26 19:10 | 48.49747 | -68.38360 | 40229 ft | 465 kts | 226° |
| 2026-04-26 19:10 | 48.45400 | -68.45585 | 40241 ft | 465 kts | 226° |
| 2026-04-26 19:11 | 48.41050 | -68.52794 | 40230 ft | 465 kts | 226° |
| 2026-04-26 19:11 | 48.36696 | -68.59989 | 40229 ft | 465 kts | 227° |
| 2026-04-26 19:12 | 48.32342 | -68.67166 | 40234 ft | 464 kts | 226° |
| 2026-04-26 19:12 | 48.27992 | -68.74317 | 40228 ft | 464 kts | 227° |
| 2026-04-26 19:13 | 48.23637 | -68.81457 | 40225 ft | 464 kts | 226° |
| 2026-04-26 19:13 | 48.19278 | -68.88582 | 40225 ft | 463 kts | 227° |
| 2026-04-26 19:14 | 48.14925 | -68.95678 | 40225 ft | 462 kts | 227° |
| 2026-04-26 19:14 | 48.10572 | -69.02757 | 40225 ft | 462 kts | 227° |
| 2026-04-26 19:15 | 48.06216 | -69.09820 | 40223 ft | 462 kts | 226° |
| 2026-04-26 19:15 | 48.01855 | -69.16874 | 40224 ft | 462 kts | 227° |
| 2026-04-26 19:16 | 47.97491 | -69.23913 | 40220 ft | 462 kts | 227° |
| 2026-04-26 19:16 | 47.93125 | -69.30935 | 40236 ft | 461 kts | 227° |
| 2026-04-26 19:17 | 47.88756 | -69.37947 | 40223 ft | 461 kts | 227° |
| 2026-04-26 19:17 | 47.84381 | -69.44946 | 40219 ft | 461 kts | 228° |
| 2026-04-26 19:18 | 47.80007 | -69.51926 | 40220 ft | 461 kts | 227° |
| 2026-04-26 19:18 | 47.75399 | -69.58543 | 40212 ft | 462 kts | 217° |
| 2026-04-26 19:19 | 47.69952 | -69.63604 | 40231 ft | 462 kts | 210° |
| 2026-04-26 19:19 | 47.64318 | -69.68204 | 40217 ft | 463 kts | 208° |
| 2026-04-26 19:20 | 47.58635 | -69.72733 | 40216 ft | 464 kts | 209° |
| 2026-04-26 19:20 | 47.52964 | -69.77277 | 40211 ft | 463 kts | 210° |
| 2026-04-26 19:21 | 47.47299 | -69.81837 | 40212 ft | 464 kts | 209° |
| 2026-04-26 19:21 | 47.41667 | -69.86369 | 40198 ft | 465 kts | 210° |
| 2026-04-26 19:22 | 47.35988 | -69.90930 | 40199 ft | 465 kts | 210° |
| 2026-04-26 19:22 | 47.30307 | -69.95478 | 40196 ft | 465 kts | 209° |
| 2026-04-26 19:23 | 47.24626 | -70.00014 | 40194 ft | 465 kts | 210° |
| 2026-04-26 19:23 | 47.18936 | -70.04549 | 40195 ft | 465 kts | 210° |
| 2026-04-26 19:24 | 47.13242 | -70.09071 | 40194 ft | 465 kts | 210° |
| 2026-04-26 19:24 | 47.04700 | -70.15832 | 40190 ft | 465 kts | 209° |
| 2026-04-26 19:25 | 46.99968 | -70.19572 | 40180 ft | 465 kts | 209° |
| 2026-04-26 19:25 | 46.93309 | -70.24821 | 40191 ft | 465 kts | 209° |
| 2026-04-26 19:26 | 46.87607 | -70.29302 | 40183 ft | 465 kts | 209° |
| 2026-04-26 19:26 | 46.81913 | -70.33766 | 40182 ft | 465 kts | 209° |
| 2026-04-26 19:27 | 46.76213 | -70.38223 | 40180 ft | 465 kts | 210° |
| 2026-04-26 19:27 | 46.70514 | -70.42670 | 40177 ft | 464 kts | 209° |
| 2026-04-26 19:28 | 46.64820 | -70.47102 | 40179 ft | 464 kts | 209° |
| 2026-04-26 19:28 | 46.59129 | -70.51521 | 40176 ft | 464 kts | 209° |
| 2026-04-26 19:29 | 46.53440 | -70.55929 | 40170 ft | 463 kts | 209° |
| 2026-04-26 19:29 | 46.47748 | -70.60327 | 40172 ft | 463 kts | 209° |
| 2026-04-26 19:30 | 46.42063 | -70.64708 | 40176 ft | 463 kts | 209° |
| 2026-04-26 19:30 | 46.37335 | -70.68345 | 40175 ft | 463 kts | 209° |
| 2026-04-26 19:31 | 46.30682 | -70.73450 | 40176 ft | 463 kts | 209° |
| 2026-04-26 19:31 | 46.24985 | -70.77812 | 40175 ft | 463 kts | 209° |
| 2026-04-26 19:32 | 46.19288 | -70.82162 | 40178 ft | 463 kts | 209° |
| 2026-04-26 19:32 | 46.13589 | -70.86503 | 40180 ft | 463 kts | 209° |
| 2026-04-26 19:33 | 46.07882 | -70.90841 | 40181 ft | 464 kts | 208° |
| 2026-04-26 19:33 | 46.02171 | -70.95171 | 40180 ft | 464 kts | 208° |
| 2026-04-26 19:34 | 45.96458 | -70.99493 | 40181 ft | 464 kts | 208° |
| 2026-04-26 19:34 | 45.90746 | -71.03804 | 40181 ft | 464 kts | 208° |
| 2026-04-26 19:35 | 45.85027 | -71.08109 | 40180 ft | 464 kts | 208° |
| 2026-04-26 19:35 | 45.79311 | -71.12403 | 40178 ft | 464 kts | 208° |
| 2026-04-26 19:36 | 45.75451 | -71.15023 | 40181 ft | 464 kts | 201° |
| 2026-04-26 19:36 | 45.67204 | -71.18782 | 40180 ft | 465 kts | 197° |
| 2026-04-26 19:37 | 45.62046 | -71.20970 | 40181 ft | 465 kts | 197° |
| 2026-04-26 19:37 | 45.55839 | -71.23589 | 40180 ft | 465 kts | 197° |
| 2026-04-26 19:38 | 45.49636 | -71.26200 | 40173 ft | 465 kts | 197° |
| 2026-04-26 19:38 | 45.42428 | -71.29225 | 40175 ft | 465 kts | 197° |
| 2026-04-26 19:39 | 45.37230 | -71.31402 | 40174 ft | 465 kts | 197° |
| 2026-04-26 19:39 | 45.31027 | -71.33994 | 40173 ft | 465 kts | 197° |
| 2026-04-26 19:40 | 45.24824 | -71.36580 | 40178 ft | 465 kts | 197° |
| 2026-04-26 19:40 | 45.18624 | -71.39159 | 40178 ft | 465 kts | 197° |
| 2026-04-26 19:41 | 45.12420 | -71.41733 | 40179 ft | 465 kts | 197° |
| 2026-04-26 19:41 | 45.07264 | -71.43869 | 40179 ft | 465 kts | 197° |
| 2026-04-26 19:42 | 45.00011 | -71.46866 | 40178 ft | 464 kts | 197° |
| 2026-04-26 19:42 | 44.93851 | -71.49406 | 40174 ft | 464 kts | 197° |
| 2026-04-26 19:43 | 44.87654 | -71.51955 | 40172 ft | 464 kts | 197° |
| 2026-04-26 19:43 | 44.81453 | -71.54499 | 40176 ft | 464 kts | 198° |
| 2026-04-26 19:44 | 44.75258 | -71.57036 | 40180 ft | 464 kts | 197° |
| 2026-04-26 19:44 | 44.69059 | -71.59568 | 40176 ft | 464 kts | 197° |
| 2026-04-26 19:45 | 44.62864 | -71.62094 | 40167 ft | 464 kts | 197° |
| 2026-04-26 19:45 | 44.56668 | -71.64613 | 40157 ft | 463 kts | 197° |
| 2026-04-26 19:46 | 44.50471 | -71.67128 | 40153 ft | 464 kts | 197° |
| 2026-04-26 19:46 | 44.44274 | -71.69637 | 40144 ft | 463 kts | 197° |
| 2026-04-26 19:47 | 44.39132 | -71.71715 | 40150 ft | 463 kts | 197° |
| 2026-04-26 19:47 | 44.31902 | -71.74631 | 40151 ft | 463 kts | 197° |
| 2026-04-26 19:48 | 44.25715 | -71.77120 | 40154 ft | 463 kts | 197° |
| 2026-04-26 19:48 | 44.19530 | -71.79602 | 40146 ft | 463 kts | 197° |
| 2026-04-26 19:49 | 44.13341 | -71.82080 | 40143 ft | 463 kts | 197° |
| 2026-04-26 19:49 | 44.07153 | -71.84553 | 40143 ft | 463 kts | 197° |
| 2026-04-26 19:50 | 44.00970 | -71.87020 | 40147 ft | 462 kts | 197° |
| 2026-04-26 19:50 | 43.94784 | -71.89481 | 40145 ft | 462 kts | 197° |
| 2026-04-26 19:51 | 43.88603 | -71.91935 | 40145 ft | 462 kts | 197° |
| 2026-04-26 19:51 | 43.82426 | -71.94382 | 40151 ft | 462 kts | 197° |
| 2026-04-26 19:52 | 43.76252 | -71.96823 | 40151 ft | 462 kts | 197° |
| 2026-04-26 19:52 | 43.70075 | -71.99259 | 40154 ft | 462 kts | 197° |
| 2026-04-26 19:53 | 43.63898 | -72.01690 | 40154 ft | 462 kts | 197° |
| 2026-04-26 19:53 | 43.57719 | -72.04118 | 40154 ft | 462 kts | 197° |
| 2026-04-26 19:54 | 43.51542 | -72.06538 | 40153 ft | 461 kts | 197° |
| 2026-04-26 19:54 | 43.45376 | -72.08950 | 40153 ft | 460 kts | 197° |
| 2026-04-26 19:55 | 43.39258 | -72.11339 | 40157 ft | 460 kts | 197° |
| 2026-04-26 19:55 | 43.33094 | -72.13739 | 40159 ft | 460 kts | 197° |
| 2026-04-26 19:56 | 43.26932 | -72.16134 | 40162 ft | 460 kts | 197° |
| 2026-04-26 19:56 | 43.20764 | -72.18526 | 40162 ft | 460 kts | 197° |
| 2026-04-26 19:57 | 43.14604 | -72.20911 | 40156 ft | 460 kts | 198° |
| 2026-04-26 19:57 | 43.08448 | -72.23287 | 40155 ft | 460 kts | 197° |
| 2026-04-26 19:58 | 43.02291 | -72.25661 | 40147 ft | 460 kts | 198° |
| 2026-04-26 19:58 | 42.96136 | -72.28028 | 40147 ft | 460 kts | 198° |
| 2026-04-26 19:59 | 42.89965 | -72.30397 | 40146 ft | 460 kts | 198° |
| 2026-04-26 19:59 | 42.83797 | -72.32759 | 40156 ft | 460 kts | 198° |
| 2026-04-26 20:00 | 42.77637 | -72.35113 | 40166 ft | 459 kts | 198° |
| 2026-04-26 20:00 | 42.71486 | -72.37459 | 40152 ft | 459 kts | 198° |
| 2026-04-26 20:01 | 42.65336 | -72.39800 | 40144 ft | 459 kts | 198° |
| 2026-04-26 20:01 | 42.59191 | -72.42134 | 40146 ft | 458 kts | 198° |
| 2026-04-26 20:02 | 42.53053 | -72.44461 | 40150 ft | 458 kts | 198° |
| 2026-04-26 20:02 | 42.47956 | -72.46389 | 40151 ft | 458 kts | 198° |
| 2026-04-26 20:03 | 42.43851 | -72.47940 | 40034 ft | 457 kts | 198° |
| 2026-04-26 20:03 | 42.40802 | -72.49090 | 39795 ft | 453 kts | 198° |
| 2026-04-26 20:03 | 42.37772 | -72.50232 | 39563 ft | 451 kts | 198° |
| 2026-04-26 20:03 | 42.34750 | -72.51370 | 39333 ft | 451 kts | 198° |
| 2026-04-26 20:04 | 42.31735 | -72.52504 | 39085 ft | 448 kts | 198° |
| 2026-04-26 20:04 | 42.28736 | -72.53631 | 38633 ft | 447 kts | 198° |
| 2026-04-26 20:04 | 42.25736 | -72.54758 | 38047 ft | 448 kts | 199° |
| 2026-04-26 20:04 | 42.22733 | -72.55885 | 37528 ft | 447 kts | 199° |
| 2026-04-26 20:05 | 42.19736 | -72.57008 | 37008 ft | 447 kts | 199° |
| 2026-04-26 20:05 | 42.16739 | -72.58130 | 36489 ft | 447 kts | 199° |
| 2026-04-26 20:05 | 42.13738 | -72.59252 | 35940 ft | 448 kts | 199° |
| 2026-04-26 20:05 | 42.10730 | -72.60377 | 35326 ft | 450 kts | 199° |
| 2026-04-26 20:06 | 42.07704 | -72.61506 | 34689 ft | 453 kts | 199° |
| 2026-04-26 20:06 | 42.04664 | -72.62641 | 34025 ft | 455 kts | 199° |
| 2026-04-26 20:06 | 42.01646 | -72.63765 | 33289 ft | 457 kts | 199° |
| 2026-04-26 20:06 | 41.98581 | -72.64906 | 32600 ft | 458 kts | 199° |
| 2026-04-26 20:07 | 41.95507 | -72.66049 | 31913 ft | 459 kts | 199° |
| 2026-04-26 20:07 | 41.92446 | -72.67184 | 31440 ft | 455 kts | 199° |
| 2026-04-26 20:07 | 41.89412 | -72.68309 | 30937 ft | 451 kts | 199° |
| 2026-04-26 20:07 | 41.86395 | -72.69427 | 30451 ft | 448 kts | 199° |
| 2026-04-26 20:08 | 41.83402 | -72.70535 | 29909 ft | 445 kts | 199° |
| 2026-04-26 20:08 | 41.80432 | -72.71633 | 29363 ft | 441 kts | 199° |
| 2026-04-26 20:08 | 41.77490 | -72.72720 | 28879 ft | 437 kts | 199° |
| 2026-04-26 20:08 | 41.74569 | -72.73798 | 28363 ft | 433 kts | 199° |
| 2026-04-26 20:09 | 41.71675 | -72.74865 | 27859 ft | 430 kts | 199° |
| 2026-04-26 20:09 | 41.68803 | -72.75923 | 27362 ft | 426 kts | 199° |
| 2026-04-26 20:09 | 41.65957 | -72.76971 | 26888 ft | 423 kts | 199° |
| 2026-04-26 20:09 | 41.63131 | -72.78011 | 26384 ft | 420 kts | 199° |
| 2026-04-26 20:10 | 41.60319 | -72.79046 | 25880 ft | 418 kts | 199° |
| 2026-04-26 20:10 | 41.57525 | -72.80071 | 25395 ft | 416 kts | 199° |
| 2026-04-26 20:10 | 41.54737 | -72.81094 | 24899 ft | 414 kts | 199° |
| 2026-04-26 20:10 | 41.51965 | -72.82111 | 24392 ft | 413 kts | 199° |
| 2026-04-26 20:11 | 41.49201 | -72.83124 | 23904 ft | 411 kts | 199° |
| 2026-04-26 20:11 | 41.46451 | -72.84130 | 23379 ft | 409 kts | 199° |
| 2026-04-26 20:11 | 41.43720 | -72.85128 | 22885 ft | 405 kts | 199° |
| 2026-04-26 20:12 | 41.38329 | -72.87095 | 21912 ft | 398 kts | 199° |
| 2026-04-26 20:12 | 41.35669 | -72.88066 | 21424 ft | 395 kts | 199° |
| 2026-04-26 20:12 | 41.33026 | -72.89029 | 20962 ft | 392 kts | 199° |
| 2026-04-26 20:12 | 41.30404 | -72.89984 | 20475 ft | 389 kts | 200° |
| 2026-04-26 20:13 | 41.27798 | -72.90932 | 20013 ft | 387 kts | 200° |
| 2026-04-26 20:13 | 41.25208 | -72.91873 | 19549 ft | 385 kts | 200° |
| 2026-04-26 20:13 | 41.22631 | -72.92809 | 19066 ft | 383 kts | 200° |
| 2026-04-26 20:13 | 41.20068 | -72.93739 | 18618 ft | 381 kts | 199° |
| 2026-04-26 20:14 | 41.17513 | -72.94666 | 18122 ft | 380 kts | 199° |
| 2026-04-26 20:14 | 41.14964 | -72.95590 | 17548 ft | 380 kts | 199° |
| 2026-04-26 20:14 | 41.12411 | -72.96516 | 16947 ft | 380 kts | 199° |
| 2026-04-26 20:14 | 41.09871 | -72.97434 | 16486 ft | 376 kts | 199° |
| 2026-04-26 20:15 | 41.07386 | -72.98432 | 16020 ft | 370 kts | 206° |
| 2026-04-26 20:15 | 41.05188 | -73.00097 | 15508 ft | 361 kts | 221° |
| 2026-04-26 20:15 | 41.03270 | -73.02214 | 15033 ft | 357 kts | 225° |
| 2026-04-26 20:15 | 41.01423 | -73.04392 | 14591 ft | 354 kts | 226° |
| 2026-04-26 20:16 | 40.99591 | -73.06563 | 14138 ft | 352 kts | 225° |
| 2026-04-26 20:16 | 40.97766 | -73.08714 | 13660 ft | 350 kts | 225° |
| 2026-04-26 20:16 | 40.95953 | -73.10843 | 13209 ft | 347 kts | 225° |
| 2026-04-26 20:16 | 40.94143 | -73.12960 | 12774 ft | 347 kts | 225° |
| 2026-04-26 20:17 | 40.92339 | -73.15066 | 12347 ft | 346 kts | 224° |
| 2026-04-26 20:17 | 40.90534 | -73.17171 | 11909 ft | 345 kts | 224° |
| 2026-04-26 20:17 | 40.88738 | -73.19261 | 11475 ft | 344 kts | 224° |
| 2026-04-26 20:17 | 40.87549 | -73.20645 | 11167 ft | 343 kts | 224° |
| 2026-04-26 20:18 | 40.85179 | -73.23389 | 10793 ft | 331 kts | 221° |
| 2026-04-26 20:18 | 40.83283 | -73.25043 | 10544 ft | 323 kts | 209° |
| 2026-04-26 20:18 | 40.81273 | -73.26287 | 10282 ft | 316 kts | 205° |
| 2026-04-26 20:18 | 40.79450 | -73.27351 | 10051 ft | 310 kts | 205° |
| 2026-04-26 20:19 | 40.77514 | -73.28477 | 9756 ft | 307 kts | 205° |
| 2026-04-26 20:19 | 40.76219 | -73.29233 | 9562 ft | 304 kts | 205° |
| 2026-04-26 20:19 | 40.74803 | -73.30062 | 9347 ft | 302 kts | 205° |
| 2026-04-26 20:19 | 40.72901 | -73.31184 | 9041 ft | 301 kts | 205° |
| 2026-04-26 20:20 | 40.70996 | -73.32315 | 8710 ft | 300 kts | 205° |
| 2026-04-26 20:20 | 40.69167 | -73.33623 | 8327 ft | 298 kts | 213° |
| 2026-04-26 20:20 | 40.67439 | -73.35121 | 7949 ft | 297 kts | 215° |
| 2026-04-26 20:20 | 40.65736 | -73.36646 | 7574 ft | 295 kts | 215° |
| 2026-04-26 20:21 | 40.64046 | -73.38175 | 7196 ft | 294 kts | 215° |
| 2026-04-26 20:21 | 40.62375 | -73.39699 | 6849 ft | 289 kts | 215° |
| 2026-04-26 20:21 | 40.60757 | -73.41181 | 6544 ft | 277 kts | 215° |
| 2026-04-26 20:21 | 40.59199 | -73.42615 | 6232 ft | 272 kts | 215° |
| 2026-04-26 20:22 | 40.58491 | -73.43269 | 6100 ft | 271 kts | 215° |
| 2026-04-26 20:22 | 40.57974 | -73.43749 | 5980 ft | 271 kts | 215° |
| 2026-04-26 20:22 | 40.56443 | -73.45174 | 5686 ft | 269 kts | 215° |
| 2026-04-26 20:22 | 40.54925 | -73.46597 | 5379 ft | 267 kts | 215° |
| 2026-04-26 20:23 | 40.53419 | -73.48014 | 5064 ft | 266 kts | 215° |
| 2026-04-26 20:23 | 40.52020 | -73.49587 | 4766 ft | 265 kts | 229° |
| 2026-04-26 20:23 | 40.50889 | -73.51487 | 4502 ft | 264 kts | 234° |
| 2026-04-26 20:23 | 40.49820 | -73.53448 | 4248 ft | 264 kts | 235° |
| 2026-04-26 20:24 | 40.49118 | -73.54749 | 4077 ft | 263 kts | 235° |
| 2026-04-26 20:24 | 40.48071 | -73.56704 | 3819 ft | 262 kts | 235° |
| 2026-04-26 20:24 | 40.47024 | -73.58656 | 3564 ft | 261 kts | 235° |
| 2026-04-26 20:24 | 40.45983 | -73.60598 | 3304 ft | 258 kts | 235° |
| 2026-04-26 20:25 | 40.44955 | -73.62512 | 3041 ft | 255 kts | 235° |
| 2026-04-26 20:25 | 40.44269 | -73.63789 | 2874 ft | 253 kts | 235° |
| 2026-04-26 20:25 | 40.42960 | -73.66222 | 2519 ft | 247 kts | 236° |
| 2026-04-26 20:25 | 40.41988 | -73.68019 | 2244 ft | 236 kts | 235° |
| 2026-04-26 20:26 | 40.41066 | -73.69750 | 2021 ft | 225 kts | 239° |
| 2026-04-26 20:26 | 40.40626 | -73.71597 | 1969 ft | 203 kts | 274° |
| 2026-04-26 20:26 | 40.41052 | -73.73243 | 1999 ft | 186 kts | 313° |
| 2026-04-26 20:26 | 40.41961 | -73.74395 | 2015 ft | 182 kts | 315° |
| 2026-04-26 20:27 | 40.42481 | -73.75911 | 1999 ft | 189 kts | 280° |
| 2026-04-26 20:27 | 40.42503 | -73.76851 | 1997 ft | 191 kts | 270° |
| 2026-04-26 20:27 | 40.42459 | -73.77647 | 1997 ft | 192 kts | 266° |
| 2026-04-26 20:28 | 40.42297 | -73.79390 | 1979 ft | 192 kts | 264° |
| 2026-04-26 20:28 | 40.42117 | -73.81130 | 1993 ft | 192 kts | 264° |
| 2026-04-26 20:28 | 40.41962 | -73.82870 | 1979 ft | 191 kts | 273° |
| 2026-04-26 20:28 | 40.42207 | -73.84556 | 1995 ft | 187 kts | 295° |
| 2026-04-26 20:29 | 40.42805 | -73.86053 | 1978 ft | 185 kts | 306° |
| 2026-04-26 20:29 | 40.43503 | -73.87468 | 1997 ft | 185 kts | 307° |
| 2026-04-26 20:29 | 40.44217 | -73.88870 | 1977 ft | 184 kts | 310° |
| 2026-04-26 20:29 | 40.45245 | -73.89708 | 1989 ft | 174 kts | 357° |
| 2026-04-26 20:30 | 40.46419 | -73.89477 | 1999 ft | 171 kts | 22° |
| 2026-04-26 20:30 | 40.47466 | -73.88785 | 1995 ft | 171 kts | 31° |
| 2026-04-26 20:30 | 40.48495 | -73.87990 | 1986 ft | 172 kts | 32° |
| 2026-04-26 20:30 | 40.49522 | -73.87186 | 1995 ft | 172 kts | 32° |
| 2026-04-26 20:31 | 40.50553 | -73.86386 | 1995 ft | 172 kts | 31° |
| 2026-04-26 20:31 | 40.51586 | -73.85589 | 1997 ft | 172 kts | 31° |
| 2026-04-26 20:31 | 40.52618 | -73.84790 | 1995 ft | 172 kts | 31° |
| 2026-04-26 20:31 | 40.53648 | -73.83987 | 2001 ft | 172 kts | 31° |
| 2026-04-26 20:32 | 40.54674 | -73.83185 | 1922 ft | 176 kts | 31° |
| 2026-04-26 20:32 | 40.55730 | -73.82358 | 1661 ft | 172 kts | 31° |
| 2026-04-26 20:32 | 40.56721 | -73.81585 | 1417 ft | 158 kts | 32° |
| 2026-04-26 20:32 | 40.57619 | -73.80884 | 1197 ft | 142 kts | 32° |
| 2026-04-26 20:33 | 40.58426 | -73.80252 | 993 ft | 129 kts | 33° |
| 2026-04-26 20:33 | 40.59171 | -73.79669 | 819 ft | 122 kts | 30° |
| 2026-04-26 20:33 | 40.59898 | -73.79121 | 639 ft | 120 kts | 34° |
| 2026-04-26 20:33 | 40.60599 | -73.78556 | 487 ft | 119 kts | 34° |
| 2026-04-26 20:34 | 40.61313 | -73.78010 | 357 ft | 119 kts | 33° |
| 2026-04-26 20:34 | 40.62018 | -73.77456 | 195 ft | 116 kts | 32° |
| 2026-04-26 20:34 | 40.62699 | -73.76917 | 43 ft | 113 kts | 34° |
| 2026-04-26 20:34 | 40.63308 | -73.76435 | 28 ft | 81 kts | 31° |
| 2026-04-26 20:35 | 40.63649 | -73.76170 | 31 ft | 43 kts | 30° |
| 2026-04-26 20:35 | 40.63815 | -73.76076 | 25 ft | 17 kts | 9° |
| 2026-04-26 20:35 | 40.63930 | -73.76064 | 29 ft | 16 kts | 1° |
| 2026-04-26 20:35 | 40.64021 | -73.76102 | 26 ft | 14 kts | 316° |
| 2026-04-26 20:36 | 40.64076 | -73.76218 | 28 ft | 15 kts | 301° |
| 2026-04-26 20:36 | 40.64135 | -73.76347 | 27 ft | 18 kts | 301° |
| 2026-04-26 20:36 | 40.64197 | -73.76486 | 30 ft | 16 kts | 300° |
| 2026-04-26 20:36 | 40.64235 | -73.76571 | 29 ft | 12 kts | 300° |
| 2026-04-26 20:37 | 40.64278 | -73.76665 | 25 ft | 10 kts | 301° |
| 2026-04-26 20:37 | 40.64303 | -73.76720 | 27 ft | 3 kts | 301° |
| 2026-04-26 20:37 | 40.64325 | -73.76769 | 25 ft | 9 kts | 301° |
| 2026-04-26 20:37 | 40.64365 | -73.76856 | 24 ft | 13 kts | 301° |
| 2026-04-26 20:38 | 40.64404 | -73.76955 | 28 ft | 13 kts | 288° |
| 2026-04-26 20:38 | 40.64422 | -73.77077 | 28 ft | 12 kts | 262° |
| 2026-04-26 20:38 | 40.64371 | -73.77152 | 32 ft | 13 kts | 211° |
| 2026-04-26 20:38 | 40.64281 | -73.77223 | 27 ft | 17 kts | 210° |
| 2026-04-26 20:39 | 40.64170 | -73.77308 | 28 ft | 21 kts | 210° |
| 2026-04-26 20:39 | 40.64034 | -73.77416 | 31 ft | 22 kts | 211° |
| 2026-04-26 20:39 | 40.63893 | -73.77526 | 29 ft | 15 kts | 211° |
| 2026-04-26 20:39 | 40.63796 | -73.77602 | 26 ft | 19 kts | 211° |
| 2026-04-26 20:40 | 40.63676 | -73.77696 | 27 ft | 18 kts | 211° |
| 2026-04-26 20:40 | 40.63584 | -73.77767 | 29 ft | 16 kts | 210° |
| 2026-04-26 20:40 | 40.63489 | -73.77841 | 27 ft | 13 kts | 210° |
| 2026-04-26 20:40 | 40.63422 | -73.77913 | 28 ft | 12 kts | 236° |
| 2026-04-26 20:41 | 40.63409 | -73.78023 | 27 ft | 12 kts | 284° |
| 2026-04-26 20:41 | 40.63447 | -73.78123 | 29 ft | 12 kts | 301° |
| 2026-04-26 20:41 | 40.63497 | -73.78235 | 29 ft | 13 kts | 301° |
| 2026-04-26 20:41 | 40.63537 | -73.78322 | 30 ft | 13 kts | 301° |
| 2026-04-26 20:42 | 40.63586 | -73.78430 | 32 ft | 15 kts | 301° |
| 2026-04-26 20:42 | 40.63646 | -73.78561 | 32 ft | 19 kts | 301° |
| 2026-04-26 20:42 | 40.63716 | -73.78715 | 33 ft | 20 kts | 301° |
| 2026-04-26 20:42 | 40.63788 | -73.78873 | 30 ft | 20 kts | 301° |
| 2026-04-26 20:43 | 40.63846 | -73.79004 | 27 ft | 11 kts | 300° |
| 2026-04-26 20:43 | 40.63884 | -73.79088 | 26 ft | 12 kts | 300° |
| 2026-04-26 20:43 | 40.63920 | -73.79168 | 29 ft | 12 kts | 300° |
| 2026-04-26 20:43 | 40.63956 | -73.79236 | 29 ft | 8 kts | 322° |
| 2026-04-26 20:44 | 40.63998 | -73.79231 | 27 ft | 4 kts | 31° |
| 2026-04-26 20:44 | 40.64008 | -73.79219 | 28 ft | 5 kts | 41° |
| 2026-04-26 20:44 | 40.64044 | -73.79178 | 28 ft | 6 kts | 37° |
| 2026-04-26 20:44 | 40.64078 | -73.79180 | 28 ft | 5 kts | 329° |
| 2026-04-26 20:45 | 40.64094 | -73.79193 | 28 ft | 3 kts | 328° |
| 2026-04-26 20:45 | 40.64111 | -73.79207 | 28 ft | 2 kts | 327° |
| 2026-04-26 20:45 | 40.64117 | -73.79212 | 28 ft | 1 kts | 327° |
| 2026-04-26 20:45 | 40.64122 | -73.79217 | 28 ft | 0 kts | 327° |